<?xml version="1.0" encoding="UTF-8"?>
<gpx xmlns="http://www.topografix.com/GPX/1/1" xmlns:gpsies="http://www.gpsies.com/GPX/1/0" creator="GPSies http://www.gpsies.com - GBI Toscana 2018 Day 2 Track 1 final (Lucca-Florence)" version="1.1" xmlns:xsi="http://www.w3.org/2001/XMLSchema-instance" xsi:schemaLocation="http://www.topografix.com/GPX/1/1 http://www.topografix.com/GPX/1/1/gpx.xsd http://www.gpsies.com/GPX/1/0 http://www.gpsies.com/gpsies.xsd">
  <metadata>
    <name>GBIIT21 D2 T1</name>
    <author>
      <name>TOAO</name>
      <link href="http://www.gpsies.com/mapUser.do?username=TOAO">
        <text>TOAO on GPSies.com</text>
        <type>GPSiesUserOnWeb</type>
      </link>
    </author>
    <link href="http://www.gpsies.com/map.do?fileId=hwxswctexdcxbean">
      <text>GBIIT21 D2 T1</text>
      <type>trackOnWeb</type>
    </link>
    <time>2018-03-27T17:48:08Z</time>
    <extensions>
      <gpsies:property>one-way trip</gpsies:property>
      <gpsies:trackLengthMeter>109477.44957319043</gpsies:trackLengthMeter>
      <gpsies:totalAscentMeter>1232.0</gpsies:totalAscentMeter>
      <gpsies:totalDescentMeter>973.0</gpsies:totalDescentMeter>
      <gpsies:minHeightMeter>11.0</gpsies:minHeightMeter>
      <gpsies:maxHeightMeter>306.0</gpsies:maxHeightMeter>
    </extensions>
  </metadata>
  <wpt lat="43.78754701" lon="10.92701911">
    <ele>91.000000</ele>
    <name>Vinci</name>
    <sym>sightseeing</sym>
    <type>Sightseeing</type>
  </wpt>
  <wpt lat="43.79923347" lon="10.93822002">
    <ele>215.00000</ele>
    <name>Leonardo's Birthplace</name>
    <sym>sightseeing</sym>
    <type>Sightseeing</type>
  </wpt>
  <wpt lat="43.77306937" lon="11.25670552">
    <ele>59.000000</ele>
    <name>Duomo</name>
    <sym>sightseeing</sym>
    <type>Sightseeing</type>
  </wpt>
  <wpt lat="43.76805288" lon="11.25305771">
    <ele>47.000000</ele>
    <name>Ponte Vecchio</name>
    <sym>sightseeing</sym>
    <type>Sightseeing</type>
  </wpt>
  <wpt lat="43.73861180" lon="11.34957432">
    <ele>269.00000</ele>
    <name>Ostello Il Bigallo</name>
    <sym>hostel</sym>
    <type>Hostel</type>
  </wpt>
  <wpt lat="43.75193919" lon="11.32138967">
    <ele>83.000000</ele>
    <name>Steep ascent</name>
    <sym>attention</sym>
    <type>Attention</type>
  </wpt>
  <trk>
    <name>GBIIT21 D2 T1</name>
    <link href="http://www.gpsies.com/map.do?fileId=hwxswctexdcxbean">
      <type>trackOnWeb</type>
    </link>
    <link href="http://www.gpsies.com/charts/hw/map/hwxswctexdcxbean_map.png">
      <type>elevationChartUrlMap</type>
    </link>
    <link href="http://www.gpsies.com/charts/hw/mapThumb/hwxswctexdcxbean_mapThumb.png">
      <type>elevationChartUrlMapThumb</type>
    </link>
    <link href="http://www.gpsies.com/charts/hw/tab/hwxswctexdcxbean_tab.png">
      <type>elevationChartUrlTab</type>
    </link>
    <trkseg>
      <trkpt lat="43.83530590" lon="10.48832540">
        <ele>15.000000</ele>
        <time>2010-01-01T00:00:00Z</time>
      </trkpt>
      <trkpt lat="43.83459250" lon="10.48800050">
        <ele>15.000000</ele>
        <time>2010-01-01T00:00:30Z</time>
      </trkpt>
      <trkpt lat="43.83456540" lon="10.48904650">
        <ele>12.000000</ele>
        <time>2010-01-01T00:01:00Z</time>
      </trkpt>
      <trkpt lat="43.83449580" lon="10.48987800">
        <ele>11.000000</ele>
        <time>2010-01-01T00:01:24Z</time>
      </trkpt>
      <trkpt lat="43.83451130" lon="10.49032330">
        <ele>12.000000</ele>
        <time>2010-01-01T00:01:37Z</time>
      </trkpt>
      <trkpt lat="43.83562570" lon="10.49269430">
        <ele>14.000000</ele>
        <time>2010-01-01T00:02:59Z</time>
      </trkpt>
      <trkpt lat="43.83601260" lon="10.49376720">
        <ele>14.000000</ele>
        <time>2010-01-01T00:03:33Z</time>
      </trkpt>
      <trkpt lat="43.83617130" lon="10.49470600">
        <ele>15.000000</ele>
        <time>2010-01-01T00:04:01Z</time>
      </trkpt>
      <trkpt lat="43.83613260" lon="10.49521020">
        <ele>16.000000</ele>
        <time>2010-01-01T00:04:16Z</time>
      </trkpt>
      <trkpt lat="43.83656210" lon="10.49614900">
        <ele>15.000000</ele>
        <time>2010-01-01T00:04:48Z</time>
      </trkpt>
      <trkpt lat="43.83634540" lon="10.50014010">
        <ele>16.000000</ele>
        <time>2010-01-01T00:06:43Z</time>
      </trkpt>
      <trkpt lat="43.83617900" lon="10.50367530">
        <ele>16.000000</ele>
        <time>2010-01-01T00:08:26Z</time>
      </trkpt>
      <trkpt lat="43.83542450" lon="10.50362160">
        <ele>13.000000</ele>
        <time>2010-01-01T00:08:56Z</time>
      </trkpt>
      <trkpt lat="43.83524260" lon="10.50628240">
        <ele>15.000000</ele>
        <time>2010-01-01T00:10:13Z</time>
      </trkpt>
      <trkpt lat="43.83490600" lon="10.50870180">
        <ele>14.000000</ele>
        <time>2010-01-01T00:11:24Z</time>
      </trkpt>
      <trkpt lat="43.83484020" lon="10.51258020">
        <ele>14.000000</ele>
        <time>2010-01-01T00:13:16Z</time>
      </trkpt>
      <trkpt lat="43.83479760" lon="10.51268750">
        <ele>14.000000</ele>
        <time>2010-01-01T00:13:20Z</time>
      </trkpt>
      <trkpt lat="43.83485180" lon="10.51286990">
        <ele>13.000000</ele>
        <time>2010-01-01T00:13:25Z</time>
      </trkpt>
      <trkpt lat="43.83449580" lon="10.51475280">
        <ele>15.000000</ele>
        <time>2010-01-01T00:14:22Z</time>
      </trkpt>
      <trkpt lat="43.83435650" lon="10.51745650">
        <ele>15.000000</ele>
        <time>2010-01-01T00:15:40Z</time>
      </trkpt>
      <trkpt lat="43.83419010" lon="10.51770860">
        <ele>14.000000</ele>
        <time>2010-01-01T00:15:50Z</time>
      </trkpt>
      <trkpt lat="43.83355160" lon="10.51773540">
        <ele>13.000000</ele>
        <time>2010-01-01T00:16:15Z</time>
      </trkpt>
      <trkpt lat="43.83314140" lon="10.51792320">
        <ele>13.000000</ele>
        <time>2010-01-01T00:16:33Z</time>
      </trkpt>
      <trkpt lat="43.83242160" lon="10.51848640">
        <ele>12.000000</ele>
        <time>2010-01-01T00:17:06Z</time>
      </trkpt>
      <trkpt lat="43.83212750" lon="10.51943060">
        <ele>13.000000</ele>
        <time>2010-01-01T00:17:35Z</time>
      </trkpt>
      <trkpt lat="43.83196500" lon="10.52086290">
        <ele>13.000000</ele>
        <time>2010-01-01T00:18:17Z</time>
      </trkpt>
      <trkpt lat="43.83191080" lon="10.52100240">
        <ele>13.000000</ele>
        <time>2010-01-01T00:18:22Z</time>
      </trkpt>
      <trkpt lat="43.83197280" lon="10.52122230">
        <ele>13.000000</ele>
        <time>2010-01-01T00:18:29Z</time>
      </trkpt>
      <trkpt lat="43.83179090" lon="10.52219860">
        <ele>14.000000</ele>
        <time>2010-01-01T00:18:58Z</time>
      </trkpt>
      <trkpt lat="43.83163220" lon="10.52395820">
        <ele>15.000000</ele>
        <time>2010-01-01T00:19:49Z</time>
      </trkpt>
      <trkpt lat="43.83153930" lon="10.52608250">
        <ele>15.000000</ele>
        <time>2010-01-01T00:20:50Z</time>
      </trkpt>
      <trkpt lat="43.83146190" lon="10.52638290">
        <ele>13.000000</ele>
        <time>2010-01-01T00:21:00Z</time>
      </trkpt>
      <trkpt lat="43.83144650" lon="10.52871640">
        <ele>13.000000</ele>
        <time>2010-01-01T00:22:07Z</time>
      </trkpt>
      <trkpt lat="43.83073830" lon="10.52973030">
        <ele>15.000000</ele>
        <time>2010-01-01T00:22:48Z</time>
      </trkpt>
      <trkpt lat="43.83050610" lon="10.52981070">
        <ele>14.000000</ele>
        <time>2010-01-01T00:22:57Z</time>
      </trkpt>
      <trkpt lat="43.83019260" lon="10.52954790">
        <ele>12.000000</ele>
        <time>2010-01-01T00:23:12Z</time>
      </trkpt>
      <trkpt lat="43.83000300" lon="10.52944600">
        <ele>12.000000</ele>
        <time>2010-01-01T00:23:20Z</time>
      </trkpt>
      <trkpt lat="43.82886140" lon="10.53112500">
        <ele>13.000000</ele>
        <time>2010-01-01T00:24:27Z</time>
      </trkpt>
      <trkpt lat="43.82889230" lon="10.53206920">
        <ele>15.000000</ele>
        <time>2010-01-01T00:24:54Z</time>
      </trkpt>
      <trkpt lat="43.82849760" lon="10.53264850">
        <ele>13.000000</ele>
        <time>2010-01-01T00:25:17Z</time>
      </trkpt>
      <trkpt lat="43.82857500" lon="10.53299180">
        <ele>15.000000</ele>
        <time>2010-01-01T00:25:28Z</time>
      </trkpt>
      <trkpt lat="43.82856730" lon="10.53401640">
        <ele>14.000000</ele>
        <time>2010-01-01T00:25:57Z</time>
      </trkpt>
      <trkpt lat="43.82871820" lon="10.53426860">
        <ele>15.000000</ele>
        <time>2010-01-01T00:26:07Z</time>
      </trkpt>
      <trkpt lat="43.82936840" lon="10.53445100">
        <ele>15.000000</ele>
        <time>2010-01-01T00:26:33Z</time>
      </trkpt>
      <trkpt lat="43.82949990" lon="10.53486400">
        <ele>14.000000</ele>
        <time>2010-01-01T00:26:46Z</time>
      </trkpt>
      <trkpt lat="43.82926000" lon="10.53571700">
        <ele>16.000000</ele>
        <time>2010-01-01T00:27:13Z</time>
      </trkpt>
      <trkpt lat="43.82891560" lon="10.53655380">
        <ele>15.000000</ele>
        <time>2010-01-01T00:27:40Z</time>
      </trkpt>
      <trkpt lat="43.82899300" lon="10.53699370">
        <ele>15.000000</ele>
        <time>2010-01-01T00:27:54Z</time>
      </trkpt>
      <trkpt lat="43.82978630" lon="10.53700440">
        <ele>13.000000</ele>
        <time>2010-01-01T00:28:25Z</time>
      </trkpt>
      <trkpt lat="43.83033970" lon="10.53663960">
        <ele>16.000000</ele>
        <time>2010-01-01T00:28:50Z</time>
      </trkpt>
      <trkpt lat="43.83055640" lon="10.53663430">
        <ele>16.000000</ele>
        <time>2010-01-01T00:28:58Z</time>
      </trkpt>
      <trkpt lat="43.83065700" lon="10.53680060">
        <ele>15.000000</ele>
        <time>2010-01-01T00:29:05Z</time>
      </trkpt>
      <trkpt lat="43.83078090" lon="10.53830260">
        <ele>15.000000</ele>
        <time>2010-01-01T00:29:48Z</time>
      </trkpt>
      <trkpt lat="43.83106720" lon="10.53976170">
        <ele>15.000000</ele>
        <time>2010-01-01T00:30:32Z</time>
      </trkpt>
      <trkpt lat="43.83118330" lon="10.54090970">
        <ele>16.000000</ele>
        <time>2010-01-01T00:31:06Z</time>
      </trkpt>
      <trkpt lat="43.83257640" lon="10.54301260">
        <ele>15.000000</ele>
        <time>2010-01-01T00:32:28Z</time>
      </trkpt>
      <trkpt lat="43.83260740" lon="10.54372070">
        <ele>14.000000</ele>
        <time>2010-01-01T00:32:48Z</time>
      </trkpt>
      <trkpt lat="43.83283960" lon="10.54411760">
        <ele>15.000000</ele>
        <time>2010-01-01T00:33:03Z</time>
      </trkpt>
      <trkpt lat="43.83282410" lon="10.54435370">
        <ele>16.000000</ele>
        <time>2010-01-01T00:33:10Z</time>
      </trkpt>
      <trkpt lat="43.83297890" lon="10.54522270">
        <ele>17.000000</ele>
        <time>2010-01-01T00:33:36Z</time>
      </trkpt>
      <trkpt lat="43.83319560" lon="10.54572700">
        <ele>16.000000</ele>
        <time>2010-01-01T00:33:53Z</time>
      </trkpt>
      <trkpt lat="43.83355160" lon="10.54631170">
        <ele>18.000000</ele>
        <time>2010-01-01T00:34:15Z</time>
      </trkpt>
      <trkpt lat="43.83357480" lon="10.54604350">
        <ele>15.000000</ele>
        <time>2010-01-01T00:34:23Z</time>
      </trkpt>
      <trkpt lat="43.83374890" lon="10.54612390">
        <ele>15.000000</ele>
        <time>2010-01-01T00:34:30Z</time>
      </trkpt>
      <trkpt lat="43.83387660" lon="10.54625270">
        <ele>16.000000</ele>
        <time>2010-01-01T00:34:36Z</time>
      </trkpt>
      <trkpt lat="43.83398500" lon="10.54657450">
        <ele>17.000000</ele>
        <time>2010-01-01T00:34:47Z</time>
      </trkpt>
      <trkpt lat="43.83437580" lon="10.54710030">
        <ele>17.000000</ele>
        <time>2010-01-01T00:35:08Z</time>
      </trkpt>
      <trkpt lat="43.83543220" lon="10.55011510">
        <ele>16.000000</ele>
        <time>2010-01-01T00:36:45Z</time>
      </trkpt>
      <trkpt lat="43.83523870" lon="10.55190680">
        <ele>17.000000</ele>
        <time>2010-01-01T00:37:38Z</time>
      </trkpt>
      <trkpt lat="43.83512260" lon="10.55414910">
        <ele>18.000000</ele>
        <time>2010-01-01T00:38:42Z</time>
      </trkpt>
      <trkpt lat="43.83514590" lon="10.55623050">
        <ele>17.000000</ele>
        <time>2010-01-01T00:39:43Z</time>
      </trkpt>
      <trkpt lat="43.83564890" lon="10.55625730">
        <ele>17.000000</ele>
        <time>2010-01-01T00:40:03Z</time>
      </trkpt>
      <trkpt lat="43.83626030" lon="10.55618760">
        <ele>16.000000</ele>
        <time>2010-01-01T00:40:27Z</time>
      </trkpt>
      <trkpt lat="43.83702260" lon="10.55621440">
        <ele>17.000000</ele>
        <time>2010-01-01T00:40:58Z</time>
      </trkpt>
      <trkpt lat="43.83758750" lon="10.55635390">
        <ele>17.000000</ele>
        <time>2010-01-01T00:41:21Z</time>
      </trkpt>
      <trkpt lat="43.84050110" lon="10.55748580">
        <ele>18.000000</ele>
        <time>2010-01-01T00:43:22Z</time>
      </trkpt>
      <trkpt lat="43.84091890" lon="10.55880540">
        <ele>17.000000</ele>
        <time>2010-01-01T00:44:04Z</time>
      </trkpt>
      <trkpt lat="43.84031150" lon="10.55946520">
        <ele>17.000000</ele>
        <time>2010-01-01T00:44:34Z</time>
      </trkpt>
      <trkpt lat="43.84026120" lon="10.55972810">
        <ele>16.000000</ele>
        <time>2010-01-01T00:44:42Z</time>
      </trkpt>
      <trkpt lat="43.84066740" lon="10.56077420">
        <ele>17.000000</ele>
        <time>2010-01-01T00:45:17Z</time>
      </trkpt>
      <trkpt lat="43.84104280" lon="10.56200260">
        <ele>17.000000</ele>
        <time>2010-01-01T00:45:55Z</time>
      </trkpt>
      <trkpt lat="43.84108920" lon="10.56242100">
        <ele>17.000000</ele>
        <time>2010-01-01T00:46:07Z</time>
      </trkpt>
      <trkpt lat="43.84110470" lon="10.56333300">
        <ele>17.000000</ele>
        <time>2010-01-01T00:46:34Z</time>
      </trkpt>
      <trkpt lat="43.84097310" lon="10.56422350">
        <ele>15.000000</ele>
        <time>2010-01-01T00:47:00Z</time>
      </trkpt>
      <trkpt lat="43.84106600" lon="10.56445950">
        <ele>15.000000</ele>
        <time>2010-01-01T00:47:08Z</time>
      </trkpt>
      <trkpt lat="43.84146840" lon="10.56474920">
        <ele>17.000000</ele>
        <time>2010-01-01T00:47:26Z</time>
      </trkpt>
      <trkpt lat="43.84158440" lon="10.56512470">
        <ele>18.000000</ele>
        <time>2010-01-01T00:47:38Z</time>
      </trkpt>
      <trkpt lat="43.84170050" lon="10.56581130">
        <ele>18.000000</ele>
        <time>2010-01-01T00:47:58Z</time>
      </trkpt>
      <trkpt lat="43.84173150" lon="10.56839700">
        <ele>17.000000</ele>
        <time>2010-01-01T00:49:13Z</time>
      </trkpt>
      <trkpt lat="43.84158440" lon="10.57009220">
        <ele>18.000000</ele>
        <time>2010-01-01T00:50:02Z</time>
      </trkpt>
      <trkpt lat="43.84235050" lon="10.57043550">
        <ele>17.000000</ele>
        <time>2010-01-01T00:50:34Z</time>
      </trkpt>
      <trkpt lat="43.84218800" lon="10.57091830">
        <ele>17.000000</ele>
        <time>2010-01-01T00:50:50Z</time>
      </trkpt>
      <trkpt lat="43.84210290" lon="10.57136350">
        <ele>17.000000</ele>
        <time>2010-01-01T00:51:03Z</time>
      </trkpt>
      <trkpt lat="43.84216870" lon="10.57201800">
        <ele>19.000000</ele>
        <time>2010-01-01T00:51:22Z</time>
      </trkpt>
      <trkpt lat="43.84207190" lon="10.57341810">
        <ele>16.000000</ele>
        <time>2010-01-01T00:52:03Z</time>
      </trkpt>
      <trkpt lat="43.84204870" lon="10.57484500">
        <ele>18.000000</ele>
        <time>2010-01-01T00:52:44Z</time>
      </trkpt>
      <trkpt lat="43.84221900" lon="10.57574620">
        <ele>16.000000</ele>
        <time>2010-01-01T00:53:11Z</time>
      </trkpt>
      <trkpt lat="43.84173920" lon="10.57801000">
        <ele>16.000000</ele>
        <time>2010-01-01T00:54:19Z</time>
      </trkpt>
      <trkpt lat="43.84165410" lon="10.57876110">
        <ele>13.000000</ele>
        <time>2010-01-01T00:54:41Z</time>
      </trkpt>
      <trkpt lat="43.84159220" lon="10.57983390">
        <ele>14.000000</ele>
        <time>2010-01-01T00:55:12Z</time>
      </trkpt>
      <trkpt lat="43.84156120" lon="10.58090680">
        <ele>14.000000</ele>
        <time>2010-01-01T00:55:43Z</time>
      </trkpt>
      <trkpt lat="43.84140650" lon="10.58134130">
        <ele>15.000000</ele>
        <time>2010-01-01T00:55:57Z</time>
      </trkpt>
      <trkpt lat="43.84126330" lon="10.58414160">
        <ele>13.000000</ele>
        <time>2010-01-01T00:57:18Z</time>
      </trkpt>
      <trkpt lat="43.84098470" lon="10.58602450">
        <ele>12.000000</ele>
        <time>2010-01-01T00:58:13Z</time>
      </trkpt>
      <trkpt lat="43.84102340" lon="10.58880320">
        <ele>11.000000</ele>
        <time>2010-01-01T00:59:34Z</time>
      </trkpt>
      <trkpt lat="43.84086090" lon="10.58899100">
        <ele>11.000000</ele>
        <time>2010-01-01T00:59:42Z</time>
      </trkpt>
      <trkpt lat="43.84068290" lon="10.58902320">
        <ele>11.000000</ele>
        <time>2010-01-01T00:59:49Z</time>
      </trkpt>
      <trkpt lat="43.84084540" lon="10.58957040">
        <ele>12.000000</ele>
        <time>2010-01-01T01:00:06Z</time>
      </trkpt>
      <trkpt lat="43.84101180" lon="10.59058960">
        <ele>13.000000</ele>
        <time>2010-01-01T01:00:36Z</time>
      </trkpt>
      <trkpt lat="43.84112400" lon="10.59461830">
        <ele>13.000000</ele>
        <time>2010-01-01T01:02:33Z</time>
      </trkpt>
      <trkpt lat="43.84093440" lon="10.59526200">
        <ele>11.000000</ele>
        <time>2010-01-01T01:02:53Z</time>
      </trkpt>
      <trkpt lat="43.84115500" lon="10.59577160">
        <ele>11.000000</ele>
        <time>2010-01-01T01:03:10Z</time>
      </trkpt>
      <trkpt lat="43.84137940" lon="10.60311010">
        <ele>13.000000</ele>
        <time>2010-01-01T01:06:42Z</time>
      </trkpt>
      <trkpt lat="43.84103890" lon="10.60387190">
        <ele>12.000000</ele>
        <time>2010-01-01T01:07:08Z</time>
      </trkpt>
      <trkpt lat="43.84105820" lon="10.60415620">
        <ele>12.000000</ele>
        <time>2010-01-01T01:07:16Z</time>
      </trkpt>
      <trkpt lat="43.84138320" lon="10.60454780">
        <ele>13.000000</ele>
        <time>2010-01-01T01:07:34Z</time>
      </trkpt>
      <trkpt lat="43.84177790" lon="10.61746000">
        <ele>18.000000</ele>
        <time>2010-01-01T01:13:47Z</time>
      </trkpt>
      <trkpt lat="43.84159220" lon="10.61770670">
        <ele>19.000000</ele>
        <time>2010-01-01T01:13:57Z</time>
      </trkpt>
      <trkpt lat="43.84064040" lon="10.61780330">
        <ele>19.000000</ele>
        <time>2010-01-01T01:14:35Z</time>
      </trkpt>
      <trkpt lat="43.83982010" lon="10.61825390">
        <ele>18.000000</ele>
        <time>2010-01-01T01:15:11Z</time>
      </trkpt>
      <trkpt lat="43.83959570" lon="10.61853280">
        <ele>17.000000</ele>
        <time>2010-01-01T01:15:23Z</time>
      </trkpt>
      <trkpt lat="43.83911980" lon="10.61934290">
        <ele>17.000000</ele>
        <time>2010-01-01T01:15:53Z</time>
      </trkpt>
      <trkpt lat="43.83768040" lon="10.61976670">
        <ele>15.000000</ele>
        <time>2010-01-01T01:16:52Z</time>
      </trkpt>
      <trkpt lat="43.83752000" lon="10.61984000">
        <ele>14.000000</ele>
        <time>2010-01-01T01:16:58Z</time>
      </trkpt>
      <trkpt lat="43.83733000" lon="10.62003000">
        <ele>13.000000</ele>
        <time>2010-01-01T01:17:08Z</time>
      </trkpt>
      <trkpt lat="43.83648000" lon="10.62149000">
        <ele>16.000000</ele>
        <time>2010-01-01T01:18:02Z</time>
      </trkpt>
      <trkpt lat="43.83597000" lon="10.62232000">
        <ele>14.000000</ele>
        <time>2010-01-01T01:18:33Z</time>
      </trkpt>
      <trkpt lat="43.83574000" lon="10.62280000">
        <ele>15.000000</ele>
        <time>2010-01-01T01:18:50Z</time>
      </trkpt>
      <trkpt lat="43.83559000" lon="10.62339000">
        <ele>17.000000</ele>
        <time>2010-01-01T01:19:08Z</time>
      </trkpt>
      <trkpt lat="43.83560000" lon="10.62456000">
        <ele>17.000000</ele>
        <time>2010-01-01T01:19:42Z</time>
      </trkpt>
      <trkpt lat="43.83557000" lon="10.62520000">
        <ele>18.000000</ele>
        <time>2010-01-01T01:20:00Z</time>
      </trkpt>
      <trkpt lat="43.83537000" lon="10.62607000">
        <ele>16.000000</ele>
        <time>2010-01-01T01:20:27Z</time>
      </trkpt>
      <trkpt lat="43.83500000" lon="10.62742000">
        <ele>17.000000</ele>
        <time>2010-01-01T01:21:09Z</time>
      </trkpt>
      <trkpt lat="43.83457000" lon="10.62889000">
        <ele>23.000000</ele>
        <time>2010-01-01T01:21:54Z</time>
      </trkpt>
      <trkpt lat="43.83440000" lon="10.62980000">
        <ele>22.000000</ele>
        <time>2010-01-01T01:22:21Z</time>
      </trkpt>
      <trkpt lat="43.83411000" lon="10.63171000">
        <ele>22.000000</ele>
        <time>2010-01-01T01:23:18Z</time>
      </trkpt>
      <trkpt lat="43.83399000" lon="10.63226000">
        <ele>23.000000</ele>
        <time>2010-01-01T01:23:34Z</time>
      </trkpt>
      <trkpt lat="43.83390000" lon="10.63254000">
        <ele>24.000000</ele>
        <time>2010-01-01T01:23:43Z</time>
      </trkpt>
      <trkpt lat="43.83304470" lon="10.63429890">
        <ele>22.000000</ele>
        <time>2010-01-01T01:24:45Z</time>
      </trkpt>
      <trkpt lat="43.83181000" lon="10.63563000">
        <ele>15.000000</ele>
        <time>2010-01-01T01:25:47Z</time>
      </trkpt>
      <trkpt lat="43.83153000" lon="10.63599000">
        <ele>14.000000</ele>
        <time>2010-01-01T01:26:02Z</time>
      </trkpt>
      <trkpt lat="43.83138000" lon="10.63625000">
        <ele>15.000000</ele>
        <time>2010-01-01T01:26:12Z</time>
      </trkpt>
      <trkpt lat="43.83118000" lon="10.63680000">
        <ele>17.000000</ele>
        <time>2010-01-01T01:26:30Z</time>
      </trkpt>
      <trkpt lat="43.83031260" lon="10.64052700">
        <ele>18.000000</ele>
        <time>2010-01-01T01:28:23Z</time>
      </trkpt>
      <trkpt lat="43.82996820" lon="10.64129940">
        <ele>20.000000</ele>
        <time>2010-01-01T01:28:49Z</time>
      </trkpt>
      <trkpt lat="43.82890400" lon="10.64255470">
        <ele>20.000000</ele>
        <time>2010-01-01T01:29:45Z</time>
      </trkpt>
      <trkpt lat="43.82787840" lon="10.64949630">
        <ele>30.000000</ele>
        <time>2010-01-01T01:33:10Z</time>
      </trkpt>
      <trkpt lat="43.82745270" lon="10.65062280">
        <ele>31.000000</ele>
        <time>2010-01-01T01:33:46Z</time>
      </trkpt>
      <trkpt lat="43.82494490" lon="10.64952850">
        <ele>27.000000</ele>
        <time>2010-01-01T01:35:32Z</time>
      </trkpt>
      <trkpt lat="43.82395410" lon="10.65289730">
        <ele>23.000000</ele>
        <time>2010-01-01T01:37:17Z</time>
      </trkpt>
      <trkpt lat="43.82342770" lon="10.65371270">
        <ele>25.000000</ele>
        <time>2010-01-01T01:37:48Z</time>
      </trkpt>
      <trkpt lat="43.82234400" lon="10.65442080">
        <ele>22.000000</ele>
        <time>2010-01-01T01:38:36Z</time>
      </trkpt>
      <trkpt lat="43.82033140" lon="10.65463540">
        <ele>21.000000</ele>
        <time>2010-01-01T01:39:57Z</time>
      </trkpt>
      <trkpt lat="43.81762200" lon="10.66394800">
        <ele>17.000000</ele>
        <time>2010-01-01T01:44:47Z</time>
      </trkpt>
      <trkpt lat="43.81620530" lon="10.66733830">
        <ele>18.000000</ele>
        <time>2010-01-01T01:46:40Z</time>
      </trkpt>
      <trkpt lat="43.81622850" lon="10.66815370">
        <ele>18.000000</ele>
        <time>2010-01-01T01:47:04Z</time>
      </trkpt>
      <trkpt lat="43.81731230" lon="10.66965570">
        <ele>21.000000</ele>
        <time>2010-01-01T01:48:05Z</time>
      </trkpt>
      <trkpt lat="43.81607370" lon="10.67223070">
        <ele>13.000000</ele>
        <time>2010-01-01T01:49:35Z</time>
      </trkpt>
      <trkpt lat="43.81526860" lon="10.67330360">
        <ele>14.000000</ele>
        <time>2010-01-01T01:50:19Z</time>
      </trkpt>
      <trkpt lat="43.81460280" lon="10.67495580">
        <ele>22.000000</ele>
        <time>2010-01-01T01:51:14Z</time>
      </trkpt>
      <trkpt lat="43.81375120" lon="10.67626470">
        <ele>20.000000</ele>
        <time>2010-01-01T01:52:05Z</time>
      </trkpt>
      <trkpt lat="43.81264410" lon="10.67695140">
        <ele>22.000000</ele>
        <time>2010-01-01T01:52:53Z</time>
      </trkpt>
      <trkpt lat="43.81251250" lon="10.67693530">
        <ele>22.000000</ele>
        <time>2010-01-01T01:52:59Z</time>
      </trkpt>
      <trkpt lat="43.81246600" lon="10.67713910">
        <ele>21.000000</ele>
        <time>2010-01-01T01:53:05Z</time>
      </trkpt>
      <trkpt lat="43.81255120" lon="10.67729470">
        <ele>21.000000</ele>
        <time>2010-01-01T01:53:11Z</time>
      </trkpt>
      <trkpt lat="43.81289180" lon="10.67775600">
        <ele>22.000000</ele>
        <time>2010-01-01T01:53:30Z</time>
      </trkpt>
      <trkpt lat="43.81300020" lon="10.67779890">
        <ele>23.000000</ele>
        <time>2010-01-01T01:53:34Z</time>
      </trkpt>
      <trkpt lat="43.81278730" lon="10.67844270">
        <ele>20.000000</ele>
        <time>2010-01-01T01:53:55Z</time>
      </trkpt>
      <trkpt lat="43.81269050" lon="10.67947800">
        <ele>18.000000</ele>
        <time>2010-01-01T01:54:25Z</time>
      </trkpt>
      <trkpt lat="43.81162990" lon="10.69180010">
        <ele>25.000000</ele>
        <time>2010-01-01T02:00:23Z</time>
      </trkpt>
      <trkpt lat="43.81170730" lon="10.69310900">
        <ele>20.000000</ele>
        <time>2010-01-01T02:01:01Z</time>
      </trkpt>
      <trkpt lat="43.81327120" lon="10.69746490">
        <ele>18.000000</ele>
        <time>2010-01-01T02:03:22Z</time>
      </trkpt>
      <trkpt lat="43.81319380" lon="10.69819450">
        <ele>20.000000</ele>
        <time>2010-01-01T02:03:43Z</time>
      </trkpt>
      <trkpt lat="43.81353440" lon="10.69825880">
        <ele>19.000000</ele>
        <time>2010-01-01T02:03:57Z</time>
      </trkpt>
      <trkpt lat="43.81474210" lon="10.70164910">
        <ele>25.000000</ele>
        <time>2010-01-01T02:05:46Z</time>
      </trkpt>
      <trkpt lat="43.81619760" lon="10.70860140">
        <ele>24.000000</ele>
        <time>2010-01-01T02:09:15Z</time>
      </trkpt>
      <trkpt lat="43.81568660" lon="10.71673390">
        <ele>27.000000</ele>
        <time>2010-01-01T02:13:11Z</time>
      </trkpt>
      <trkpt lat="43.81418470" lon="10.72321410">
        <ele>22.000000</ele>
        <time>2010-01-01T02:16:27Z</time>
      </trkpt>
      <trkpt lat="43.81392150" lon="10.72516670">
        <ele>16.000000</ele>
        <time>2010-01-01T02:17:25Z</time>
      </trkpt>
      <trkpt lat="43.81376670" lon="10.72780600">
        <ele>19.000000</ele>
        <time>2010-01-01T02:18:41Z</time>
      </trkpt>
      <trkpt lat="43.81300800" lon="10.72797770">
        <ele>23.000000</ele>
        <time>2010-01-01T02:19:12Z</time>
      </trkpt>
      <trkpt lat="43.81221830" lon="10.72782750">
        <ele>24.000000</ele>
        <time>2010-01-01T02:19:44Z</time>
      </trkpt>
      <trkpt lat="43.81193960" lon="10.72947970">
        <ele>25.000000</ele>
        <time>2010-01-01T02:20:33Z</time>
      </trkpt>
      <trkpt lat="43.81101050" lon="10.73038100">
        <ele>28.000000</ele>
        <time>2010-01-01T02:21:18Z</time>
      </trkpt>
      <trkpt lat="43.81046850" lon="10.73147530">
        <ele>29.000000</ele>
        <time>2010-01-01T02:21:57Z</time>
      </trkpt>
      <trkpt lat="43.80878070" lon="10.73374980">
        <ele>30.000000</ele>
        <time>2010-01-01T02:23:31Z</time>
      </trkpt>
      <trkpt lat="43.80794450" lon="10.73546640">
        <ele>32.000000</ele>
        <time>2010-01-01T02:24:31Z</time>
      </trkpt>
      <trkpt lat="43.80521900" lon="10.73782680">
        <ele>38.000000</ele>
        <time>2010-01-01T02:26:39Z</time>
      </trkpt>
      <trkpt lat="43.80463060" lon="10.73943610">
        <ele>36.000000</ele>
        <time>2010-01-01T02:27:32Z</time>
      </trkpt>
      <trkpt lat="43.80289610" lon="10.74044460">
        <ele>42.000000</ele>
        <time>2010-01-01T02:28:47Z</time>
      </trkpt>
      <trkpt lat="43.80205980" lon="10.74108830">
        <ele>42.000000</ele>
        <time>2010-01-01T02:29:25Z</time>
      </trkpt>
      <trkpt lat="43.79970580" lon="10.74437140">
        <ele>46.000000</ele>
        <time>2010-01-01T02:31:39Z</time>
      </trkpt>
      <trkpt lat="43.79852870" lon="10.74516530">
        <ele>48.000000</ele>
        <time>2010-01-01T02:32:31Z</time>
      </trkpt>
      <trkpt lat="43.79769240" lon="10.74634550">
        <ele>50.000000</ele>
        <time>2010-01-01T02:33:19Z</time>
      </trkpt>
      <trkpt lat="43.79680960" lon="10.74692480">
        <ele>49.000000</ele>
        <time>2010-01-01T02:33:58Z</time>
      </trkpt>
      <trkpt lat="43.79563250" lon="10.74681750">
        <ele>46.000000</ele>
        <time>2010-01-01T02:34:45Z</time>
      </trkpt>
      <trkpt lat="43.79321620" lon="10.74823370">
        <ele>53.000000</ele>
        <time>2010-01-01T02:36:30Z</time>
      </trkpt>
      <trkpt lat="43.79039720" lon="10.75280420">
        <ele>55.000000</ele>
        <time>2010-01-01T02:39:24Z</time>
      </trkpt>
      <trkpt lat="43.78926640" lon="10.75417750">
        <ele>62.000000</ele>
        <time>2010-01-01T02:40:24Z</time>
      </trkpt>
      <trkpt lat="43.78784130" lon="10.75522890">
        <ele>59.000000</ele>
        <time>2010-01-01T02:41:29Z</time>
      </trkpt>
      <trkpt lat="43.78706680" lon="10.75636620">
        <ele>59.000000</ele>
        <time>2010-01-01T02:42:14Z</time>
      </trkpt>
      <trkpt lat="43.78612180" lon="10.75707430">
        <ele>59.000000</ele>
        <time>2010-01-01T02:42:57Z</time>
      </trkpt>
      <trkpt lat="43.78491350" lon="10.75827590">
        <ele>59.000000</ele>
        <time>2010-01-01T02:43:57Z</time>
      </trkpt>
      <trkpt lat="43.78519240" lon="10.75979940">
        <ele>64.000000</ele>
        <time>2010-01-01T02:44:42Z</time>
      </trkpt>
      <trkpt lat="43.78584300" lon="10.76100110">
        <ele>64.000000</ele>
        <time>2010-01-01T02:45:26Z</time>
      </trkpt>
      <trkpt lat="43.78649360" lon="10.76149460">
        <ele>67.000000</ele>
        <time>2010-01-01T02:45:55Z</time>
      </trkpt>
      <trkpt lat="43.78757790" lon="10.76426260">
        <ele>68.000000</ele>
        <time>2010-01-01T02:47:26Z</time>
      </trkpt>
      <trkpt lat="43.78915800" lon="10.76765290">
        <ele>64.000000</ele>
        <time>2010-01-01T02:49:23Z</time>
      </trkpt>
      <trkpt lat="43.78858480" lon="10.77353230">
        <ele>65.000000</ele>
        <time>2010-01-01T02:52:14Z</time>
      </trkpt>
      <trkpt lat="43.78923540" lon="10.77615020">
        <ele>60.000000</ele>
        <time>2010-01-01T02:53:34Z</time>
      </trkpt>
      <trkpt lat="43.78894110" lon="10.77848910">
        <ele>61.000000</ele>
        <time>2010-01-01T02:54:43Z</time>
      </trkpt>
      <trkpt lat="43.78825950" lon="10.78024860">
        <ele>64.000000</ele>
        <time>2010-01-01T02:55:41Z</time>
      </trkpt>
      <trkpt lat="43.78849190" lon="10.78338140">
        <ele>63.000000</ele>
        <time>2010-01-01T02:57:12Z</time>
      </trkpt>
      <trkpt lat="43.78846090" lon="10.78456160">
        <ele>62.000000</ele>
        <time>2010-01-01T02:57:46Z</time>
      </trkpt>
      <trkpt lat="43.78782580" lon="10.78576320">
        <ele>63.000000</ele>
        <time>2010-01-01T02:58:29Z</time>
      </trkpt>
      <trkpt lat="43.78509940" lon="10.78683610">
        <ele>61.000000</ele>
        <time>2010-01-01T03:00:22Z</time>
      </trkpt>
      <trkpt lat="43.78466570" lon="10.78728670">
        <ele>63.000000</ele>
        <time>2010-01-01T03:00:44Z</time>
      </trkpt>
      <trkpt lat="43.78415440" lon="10.78923940">
        <ele>58.000000</ele>
        <time>2010-01-01T03:01:44Z</time>
      </trkpt>
      <trkpt lat="43.78372070" lon="10.78999040">
        <ele>57.000000</ele>
        <time>2010-01-01T03:02:12Z</time>
      </trkpt>
      <trkpt lat="43.78258980" lon="10.79022640">
        <ele>57.000000</ele>
        <time>2010-01-01T03:02:58Z</time>
      </trkpt>
      <trkpt lat="43.78221800" lon="10.79093450">
        <ele>56.000000</ele>
        <time>2010-01-01T03:03:23Z</time>
      </trkpt>
      <trkpt lat="43.78223350" lon="10.79213610">
        <ele>49.000000</ele>
        <time>2010-01-01T03:03:58Z</time>
      </trkpt>
      <trkpt lat="43.78176870" lon="10.79273700">
        <ele>48.000000</ele>
        <time>2010-01-01T03:04:23Z</time>
      </trkpt>
      <trkpt lat="43.78104060" lon="10.79290860">
        <ele>53.000000</ele>
        <time>2010-01-01T03:04:53Z</time>
      </trkpt>
      <trkpt lat="43.78052930" lon="10.79346650">
        <ele>46.000000</ele>
        <time>2010-01-01T03:05:19Z</time>
      </trkpt>
      <trkpt lat="43.78094760" lon="10.79544060">
        <ele>42.000000</ele>
        <time>2010-01-01T03:06:18Z</time>
      </trkpt>
      <trkpt lat="43.78059130" lon="10.79801550">
        <ele>53.000000</ele>
        <time>2010-01-01T03:07:34Z</time>
      </trkpt>
      <trkpt lat="43.78083920" lon="10.79898110">
        <ele>53.000000</ele>
        <time>2010-01-01T03:08:03Z</time>
      </trkpt>
      <trkpt lat="43.78048290" lon="10.80033300">
        <ele>48.000000</ele>
        <time>2010-01-01T03:08:45Z</time>
      </trkpt>
      <trkpt lat="43.78026600" lon="10.80067630">
        <ele>46.000000</ele>
        <time>2010-01-01T03:08:58Z</time>
      </trkpt>
      <trkpt lat="43.78014200" lon="10.80170630">
        <ele>44.000000</ele>
        <time>2010-01-01T03:09:28Z</time>
      </trkpt>
      <trkpt lat="43.77749280" lon="10.80305810">
        <ele>44.000000</ele>
        <time>2010-01-01T03:11:21Z</time>
      </trkpt>
      <trkpt lat="43.77602090" lon="10.80333700">
        <ele>45.000000</ele>
        <time>2010-01-01T03:12:21Z</time>
      </trkpt>
      <trkpt lat="43.77554060" lon="10.80320830">
        <ele>43.000000</ele>
        <time>2010-01-01T03:12:41Z</time>
      </trkpt>
      <trkpt lat="43.77496730" lon="10.80391640">
        <ele>44.000000</ele>
        <time>2010-01-01T03:13:11Z</time>
      </trkpt>
      <trkpt lat="43.77462650" lon="10.80571880">
        <ele>37.000000</ele>
        <time>2010-01-01T03:14:05Z</time>
      </trkpt>
      <trkpt lat="43.77388280" lon="10.80698490">
        <ele>31.000000</ele>
        <time>2010-01-01T03:14:52Z</time>
      </trkpt>
      <trkpt lat="43.77326300" lon="10.80865850">
        <ele>22.000000</ele>
        <time>2010-01-01T03:15:47Z</time>
      </trkpt>
      <trkpt lat="43.77214740" lon="10.80966710">
        <ele>15.000000</ele>
        <time>2010-01-01T03:16:40Z</time>
      </trkpt>
      <trkpt lat="43.77067540" lon="10.81867930">
        <ele>15.000000</ele>
        <time>2010-01-01T03:21:07Z</time>
      </trkpt>
      <trkpt lat="43.77365040" lon="10.82921500">
        <ele>18.000000</ele>
        <time>2010-01-01T03:26:34Z</time>
      </trkpt>
      <trkpt lat="43.77358840" lon="10.83071700">
        <ele>21.000000</ele>
        <time>2010-01-01T03:27:18Z</time>
      </trkpt>
      <trkpt lat="43.77101630" lon="10.82981580">
        <ele>20.000000</ele>
        <time>2010-01-01T03:29:04Z</time>
      </trkpt>
      <trkpt lat="43.77021060" lon="10.82919350">
        <ele>20.000000</ele>
        <time>2010-01-01T03:29:41Z</time>
      </trkpt>
      <trkpt lat="43.76859910" lon="10.82661860">
        <ele>18.000000</ele>
        <time>2010-01-01T03:31:19Z</time>
      </trkpt>
      <trkpt lat="43.75195460" lon="10.82127570">
        <ele>20.000000</ele>
        <time>2010-01-01T03:42:43Z</time>
      </trkpt>
      <trkpt lat="43.75164470" lon="10.82252020">
        <ele>28.000000</ele>
        <time>2010-01-01T03:43:21Z</time>
      </trkpt>
      <trkpt lat="43.75272960" lon="10.82307810">
        <ele>32.000000</ele>
        <time>2010-01-01T03:44:08Z</time>
      </trkpt>
      <trkpt lat="43.75329540" lon="10.82417240">
        <ele>41.000000</ele>
        <time>2010-01-01T03:44:46Z</time>
      </trkpt>
      <trkpt lat="43.75236540" lon="10.82404370">
        <ele>47.000000</ele>
        <time>2010-01-01T03:45:24Z</time>
      </trkpt>
      <trkpt lat="43.75331860" lon="10.82539550">
        <ele>52.000000</ele>
        <time>2010-01-01T03:46:18Z</time>
      </trkpt>
      <trkpt lat="43.75460500" lon="10.82640400">
        <ele>57.000000</ele>
        <time>2010-01-01T03:47:18Z</time>
      </trkpt>
      <trkpt lat="43.75499250" lon="10.82717650">
        <ele>60.000000</ele>
        <time>2010-01-01T03:47:45Z</time>
      </trkpt>
      <trkpt lat="43.75542650" lon="10.82906480">
        <ele>63.000000</ele>
        <time>2010-01-01T03:48:42Z</time>
      </trkpt>
      <trkpt lat="43.75615490" lon="10.83027720">
        <ele>68.000000</ele>
        <time>2010-01-01T03:49:28Z</time>
      </trkpt>
      <trkpt lat="43.75753430" lon="10.83129640">
        <ele>62.000000</ele>
        <time>2010-01-01T03:50:30Z</time>
      </trkpt>
      <trkpt lat="43.75779780" lon="10.83206890">
        <ele>61.000000</ele>
        <time>2010-01-01T03:50:55Z</time>
      </trkpt>
      <trkpt lat="43.75897560" lon="10.83404300">
        <ele>64.000000</ele>
        <time>2010-01-01T03:52:09Z</time>
      </trkpt>
      <trkpt lat="43.76046340" lon="10.83569520">
        <ele>61.000000</ele>
        <time>2010-01-01T03:53:25Z</time>
      </trkpt>
      <trkpt lat="43.76145520" lon="10.83773370">
        <ele>65.000000</ele>
        <time>2010-01-01T03:54:36Z</time>
      </trkpt>
      <trkpt lat="43.76267950" lon="10.83897820">
        <ele>68.000000</ele>
        <time>2010-01-01T03:55:37Z</time>
      </trkpt>
      <trkpt lat="43.76421370" lon="10.84204670">
        <ele>60.000000</ele>
        <time>2010-01-01T03:57:25Z</time>
      </trkpt>
      <trkpt lat="43.76404320" lon="10.84376330">
        <ele>68.000000</ele>
        <time>2010-01-01T03:58:15Z</time>
      </trkpt>
      <trkpt lat="43.76280350" lon="10.84741110">
        <ele>84.000000</ele>
        <time>2010-01-01T04:00:12Z</time>
      </trkpt>
      <trkpt lat="43.76309790" lon="10.84878440">
        <ele>82.000000</ele>
        <time>2010-01-01T04:00:53Z</time>
      </trkpt>
      <trkpt lat="43.76294300" lon="10.85007190">
        <ele>83.000000</ele>
        <time>2010-01-01T04:01:31Z</time>
      </trkpt>
      <trkpt lat="43.76247800" lon="10.85093020">
        <ele>81.000000</ele>
        <time>2010-01-01T04:02:02Z</time>
      </trkpt>
      <trkpt lat="43.76260200" lon="10.85211030">
        <ele>78.000000</ele>
        <time>2010-01-01T04:02:36Z</time>
      </trkpt>
      <trkpt lat="43.76257100" lon="10.85301160">
        <ele>80.000000</ele>
        <time>2010-01-01T04:03:03Z</time>
      </trkpt>
      <trkpt lat="43.76216810" lon="10.85376260">
        <ele>83.000000</ele>
        <time>2010-01-01T04:03:30Z</time>
      </trkpt>
      <trkpt lat="43.76185820" lon="10.85412740">
        <ele>85.000000</ele>
        <time>2010-01-01T04:03:46Z</time>
      </trkpt>
      <trkpt lat="43.76119180" lon="10.85451360">
        <ele>86.000000</ele>
        <time>2010-01-01T04:04:15Z</time>
      </trkpt>
      <trkpt lat="43.76013800" lon="10.85494270">
        <ele>88.000000</ele>
        <time>2010-01-01T04:04:59Z</time>
      </trkpt>
      <trkpt lat="43.75954900" lon="10.85561870">
        <ele>89.000000</ele>
        <time>2010-01-01T04:05:29Z</time>
      </trkpt>
      <trkpt lat="43.75934760" lon="10.85646620">
        <ele>94.000000</ele>
        <time>2010-01-01T04:05:55Z</time>
      </trkpt>
      <trkpt lat="43.75897560" lon="10.85820430">
        <ele>92.000000</ele>
        <time>2010-01-01T04:06:48Z</time>
      </trkpt>
      <trkpt lat="43.75855720" lon="10.85916990">
        <ele>91.000000</ele>
        <time>2010-01-01T04:07:20Z</time>
      </trkpt>
      <trkpt lat="43.75703830" lon="10.86208820">
        <ele>93.000000</ele>
        <time>2010-01-01T04:09:04Z</time>
      </trkpt>
      <trkpt lat="43.75685240" lon="10.86301080">
        <ele>97.000000</ele>
        <time>2010-01-01T04:09:32Z</time>
      </trkpt>
      <trkpt lat="43.75692990" lon="10.86494200">
        <ele>99.000000</ele>
        <time>2010-01-01T04:10:28Z</time>
      </trkpt>
      <trkpt lat="43.75804570" lon="10.86773150">
        <ele>94.000000</ele>
        <time>2010-01-01T04:12:00Z</time>
      </trkpt>
      <trkpt lat="43.75860370" lon="10.86957690">
        <ele>90.000000</ele>
        <time>2010-01-01T04:12:58Z</time>
      </trkpt>
      <trkpt lat="43.76018440" lon="10.87322470">
        <ele>90.000000</ele>
        <time>2010-01-01T04:15:01Z</time>
      </trkpt>
      <trkpt lat="43.76047000" lon="10.87371000">
        <ele>89.000000</ele>
        <time>2010-01-01T04:15:19Z</time>
      </trkpt>
      <trkpt lat="43.76080000" lon="10.87497000">
        <ele>94.000000</ele>
        <time>2010-01-01T04:15:58Z</time>
      </trkpt>
      <trkpt lat="43.76089000" lon="10.87541000">
        <ele>97.000000</ele>
        <time>2010-01-01T04:16:11Z</time>
      </trkpt>
      <trkpt lat="43.76094000" lon="10.87625000">
        <ele>95.000000</ele>
        <time>2010-01-01T04:16:35Z</time>
      </trkpt>
      <trkpt lat="43.76053000" lon="10.87705000">
        <ele>99.000000</ele>
        <time>2010-01-01T04:17:04Z</time>
      </trkpt>
      <trkpt lat="43.76002000" lon="10.87805000">
        <ele>102.00000</ele>
        <time>2010-01-01T04:17:39Z</time>
      </trkpt>
      <trkpt lat="43.75995000" lon="10.87861000">
        <ele>102.00000</ele>
        <time>2010-01-01T04:17:55Z</time>
      </trkpt>
      <trkpt lat="43.75994000" lon="10.87945000">
        <ele>103.00000</ele>
        <time>2010-01-01T04:18:20Z</time>
      </trkpt>
      <trkpt lat="43.75987000" lon="10.87990000">
        <ele>105.00000</ele>
        <time>2010-01-01T04:18:33Z</time>
      </trkpt>
      <trkpt lat="43.75978000" lon="10.88019000">
        <ele>105.00000</ele>
        <time>2010-01-01T04:18:42Z</time>
      </trkpt>
      <trkpt lat="43.76071000" lon="10.88076000">
        <ele>94.000000</ele>
        <time>2010-01-01T04:19:23Z</time>
      </trkpt>
      <trkpt lat="43.76119000" lon="10.88111000">
        <ele>93.000000</ele>
        <time>2010-01-01T04:19:45Z</time>
      </trkpt>
      <trkpt lat="43.76223000" lon="10.88247000">
        <ele>91.000000</ele>
        <time>2010-01-01T04:20:42Z</time>
      </trkpt>
      <trkpt lat="43.76331000" lon="10.88388000">
        <ele>94.000000</ele>
        <time>2010-01-01T04:21:41Z</time>
      </trkpt>
      <trkpt lat="43.76354000" lon="10.88432000">
        <ele>95.000000</ele>
        <time>2010-01-01T04:21:57Z</time>
      </trkpt>
      <trkpt lat="43.76515000" lon="10.88818000">
        <ele>94.000000</ele>
        <time>2010-01-01T04:24:06Z</time>
      </trkpt>
      <trkpt lat="43.76536000" lon="10.88846000">
        <ele>94.000000</ele>
        <time>2010-01-01T04:24:17Z</time>
      </trkpt>
      <trkpt lat="43.76567000" lon="10.88873000">
        <ele>95.000000</ele>
        <time>2010-01-01T04:24:32Z</time>
      </trkpt>
      <trkpt lat="43.76670000" lon="10.88933000">
        <ele>95.000000</ele>
        <time>2010-01-01T04:25:17Z</time>
      </trkpt>
      <trkpt lat="43.76930000" lon="10.89060000">
        <ele>91.000000</ele>
        <time>2010-01-01T04:27:07Z</time>
      </trkpt>
      <trkpt lat="43.76975350" lon="10.89094870">
        <ele>91.000000</ele>
        <time>2010-01-01T04:27:28Z</time>
      </trkpt>
      <trkpt lat="43.77020000" lon="10.89203000">
        <ele>87.000000</ele>
        <time>2010-01-01T04:28:04Z</time>
      </trkpt>
      <trkpt lat="43.77031000" lon="10.89261000">
        <ele>88.000000</ele>
        <time>2010-01-01T04:28:21Z</time>
      </trkpt>
      <trkpt lat="43.77021000" lon="10.89349000">
        <ele>85.000000</ele>
        <time>2010-01-01T04:28:47Z</time>
      </trkpt>
      <trkpt lat="43.76984000" lon="10.89647000">
        <ele>87.000000</ele>
        <time>2010-01-01T04:30:15Z</time>
      </trkpt>
      <trkpt lat="43.76971000" lon="10.89704000">
        <ele>88.000000</ele>
        <time>2010-01-01T04:30:32Z</time>
      </trkpt>
      <trkpt lat="43.76964000" lon="10.89806000">
        <ele>89.000000</ele>
        <time>2010-01-01T04:31:01Z</time>
      </trkpt>
      <trkpt lat="43.76977000" lon="10.89927000">
        <ele>89.000000</ele>
        <time>2010-01-01T04:31:37Z</time>
      </trkpt>
      <trkpt lat="43.77134000" lon="10.90285000">
        <ele>78.000000</ele>
        <time>2010-01-01T04:33:38Z</time>
      </trkpt>
      <trkpt lat="43.77235000" lon="10.90528000">
        <ele>75.000000</ele>
        <time>2010-01-01T04:34:59Z</time>
      </trkpt>
      <trkpt lat="43.77334000" lon="10.90737000">
        <ele>80.000000</ele>
        <time>2010-01-01T04:36:11Z</time>
      </trkpt>
      <trkpt lat="43.77404000" lon="10.90871000">
        <ele>79.000000</ele>
        <time>2010-01-01T04:36:59Z</time>
      </trkpt>
      <trkpt lat="43.77429000" lon="10.90902000">
        <ele>76.000000</ele>
        <time>2010-01-01T04:37:12Z</time>
      </trkpt>
      <trkpt lat="43.77819000" lon="10.91305000">
        <ele>70.000000</ele>
        <time>2010-01-01T04:40:27Z</time>
      </trkpt>
      <trkpt lat="43.77855000" lon="10.91346000">
        <ele>68.000000</ele>
        <time>2010-01-01T04:40:46Z</time>
      </trkpt>
      <trkpt lat="43.77903000" lon="10.91416000">
        <ele>66.000000</ele>
        <time>2010-01-01T04:41:14Z</time>
      </trkpt>
      <trkpt lat="43.77922000" lon="10.91457000">
        <ele>64.000000</ele>
        <time>2010-01-01T04:41:28Z</time>
      </trkpt>
      <trkpt lat="43.77925000" lon="10.91474000">
        <ele>62.000000</ele>
        <time>2010-01-01T04:41:33Z</time>
      </trkpt>
      <trkpt lat="43.77927000" lon="10.91555000">
        <ele>56.000000</ele>
        <time>2010-01-01T04:41:56Z</time>
      </trkpt>
      <trkpt lat="43.77936000" lon="10.91583000">
        <ele>54.000000</ele>
        <time>2010-01-01T04:42:05Z</time>
      </trkpt>
      <trkpt lat="43.77956000" lon="10.91610000">
        <ele>51.000000</ele>
        <time>2010-01-01T04:42:16Z</time>
      </trkpt>
      <trkpt lat="43.78017000" lon="10.91634000">
        <ele>46.000000</ele>
        <time>2010-01-01T04:42:42Z</time>
      </trkpt>
      <trkpt lat="43.78050000" lon="10.91658000">
        <ele>44.000000</ele>
        <time>2010-01-01T04:42:57Z</time>
      </trkpt>
      <trkpt lat="43.78068000" lon="10.91695000">
        <ele>44.000000</ele>
        <time>2010-01-01T04:43:10Z</time>
      </trkpt>
      <trkpt lat="43.78062230" lon="10.91723440">
        <ele>42.000000</ele>
        <time>2010-01-01T04:43:18Z</time>
      </trkpt>
      <trkpt lat="43.78096000" lon="10.91756000">
        <ele>44.000000</ele>
        <time>2010-01-01T04:43:35Z</time>
      </trkpt>
      <trkpt lat="43.78129000" lon="10.91795000">
        <ele>45.000000</ele>
        <time>2010-01-01T04:43:52Z</time>
      </trkpt>
      <trkpt lat="43.78151000" lon="10.91837000">
        <ele>45.000000</ele>
        <time>2010-01-01T04:44:07Z</time>
      </trkpt>
      <trkpt lat="43.78219000" lon="10.91986000">
        <ele>49.000000</ele>
        <time>2010-01-01T04:44:58Z</time>
      </trkpt>
      <trkpt lat="43.78296000" lon="10.92136000">
        <ele>56.000000</ele>
        <time>2010-01-01T04:45:51Z</time>
      </trkpt>
      <trkpt lat="43.78233420" lon="10.92183700">
        <ele>61.000000</ele>
        <time>2010-01-01T04:46:20Z</time>
      </trkpt>
      <trkpt lat="43.78225670" lon="10.92338200">
        <ele>71.000000</ele>
        <time>2010-01-01T04:47:04Z</time>
      </trkpt>
      <trkpt lat="43.78306230" lon="10.92348930">
        <ele>73.000000</ele>
        <time>2010-01-01T04:47:37Z</time>
      </trkpt>
      <trkpt lat="43.78429000" lon="10.92452000">
        <ele>71.000000</ele>
        <time>2010-01-01T04:48:34Z</time>
      </trkpt>
      <trkpt lat="43.78536280" lon="10.92545270">
        <ele>75.000000</ele>
        <time>2010-01-01T04:49:25Z</time>
      </trkpt>
      <trkpt lat="43.78587780" lon="10.92647730">
        <ele>79.000000</ele>
        <time>2010-01-01T04:50:01Z</time>
      </trkpt>
      <trkpt lat="43.78630380" lon="10.92698150">
        <ele>82.000000</ele>
        <time>2010-01-01T04:50:23Z</time>
      </trkpt>
      <trkpt lat="43.78817430" lon="10.92822610">
        <ele>84.000000</ele>
        <time>2010-01-01T04:51:47Z</time>
      </trkpt>
      <trkpt lat="43.78896430" lon="10.92844060">
        <ele>87.000000</ele>
        <time>2010-01-01T04:52:19Z</time>
      </trkpt>
      <trkpt lat="43.78937090" lon="10.92888590">
        <ele>90.000000</ele>
        <time>2010-01-01T04:52:39Z</time>
      </trkpt>
      <trkpt lat="43.79066440" lon="10.92921850">
        <ele>96.000000</ele>
        <time>2010-01-01T04:53:32Z</time>
      </trkpt>
      <trkpt lat="43.79211650" lon="10.92892340">
        <ele>96.000000</ele>
        <time>2010-01-01T04:54:31Z</time>
      </trkpt>
      <trkpt lat="43.79265860" lon="10.92852110">
        <ele>101.00000</ele>
        <time>2010-01-01T04:54:56Z</time>
      </trkpt>
      <trkpt lat="43.79423850" lon="10.92834940">
        <ele>117.00000</ele>
        <time>2010-01-01T04:55:59Z</time>
      </trkpt>
      <trkpt lat="43.79614360" lon="10.92972270">
        <ele>138.00000</ele>
        <time>2010-01-01T04:57:25Z</time>
      </trkpt>
      <trkpt lat="43.79623650" lon="10.93034500">
        <ele>143.00000</ele>
        <time>2010-01-01T04:57:43Z</time>
      </trkpt>
      <trkpt lat="43.79656180" lon="10.93034500">
        <ele>153.00000</ele>
        <time>2010-01-01T04:57:56Z</time>
      </trkpt>
      <trkpt lat="43.79670120" lon="10.92959400">
        <ele>150.00000</ele>
        <time>2010-01-01T04:58:19Z</time>
      </trkpt>
      <trkpt lat="43.79699540" lon="10.92950820">
        <ele>151.00000</ele>
        <time>2010-01-01T04:58:31Z</time>
      </trkpt>
      <trkpt lat="43.79746390" lon="10.92991590">
        <ele>156.00000</ele>
        <time>2010-01-01T04:58:53Z</time>
      </trkpt>
      <trkpt lat="43.79752200" lon="10.93015190">
        <ele>160.00000</ele>
        <time>2010-01-01T04:59:00Z</time>
      </trkpt>
      <trkpt lat="43.79735170" lon="10.93051670">
        <ele>164.00000</ele>
        <time>2010-01-01T04:59:13Z</time>
      </trkpt>
      <trkpt lat="43.79740590" lon="10.93116040">
        <ele>165.00000</ele>
        <time>2010-01-01T04:59:31Z</time>
      </trkpt>
      <trkpt lat="43.79784730" lon="10.93242640">
        <ele>172.00000</ele>
        <time>2010-01-01T05:00:12Z</time>
      </trkpt>
      <trkpt lat="43.79784730" lon="10.93317740">
        <ele>174.00000</ele>
        <time>2010-01-01T05:00:34Z</time>
      </trkpt>
      <trkpt lat="43.79798670" lon="10.93362800">
        <ele>180.00000</ele>
        <time>2010-01-01T05:00:48Z</time>
      </trkpt>
      <trkpt lat="43.79776980" lon="10.93452930">
        <ele>181.00000</ele>
        <time>2010-01-01T05:01:15Z</time>
      </trkpt>
      <trkpt lat="43.79784340" lon="10.93478670">
        <ele>186.00000</ele>
        <time>2010-01-01T05:01:23Z</time>
      </trkpt>
      <trkpt lat="43.79795570" lon="10.93478670">
        <ele>188.00000</ele>
        <time>2010-01-01T05:01:28Z</time>
      </trkpt>
      <trkpt lat="43.79798670" lon="10.93437910">
        <ele>185.00000</ele>
        <time>2010-01-01T05:01:40Z</time>
      </trkpt>
      <trkpt lat="43.79820350" lon="10.93422880">
        <ele>188.00000</ele>
        <time>2010-01-01T05:01:49Z</time>
      </trkpt>
      <trkpt lat="43.79848230" lon="10.93417520">
        <ele>192.00000</ele>
        <time>2010-01-01T05:02:01Z</time>
      </trkpt>
      <trkpt lat="43.79874560" lon="10.93427180">
        <ele>195.00000</ele>
        <time>2010-01-01T05:02:12Z</time>
      </trkpt>
      <trkpt lat="43.79885780" lon="10.93439510">
        <ele>196.00000</ele>
        <time>2010-01-01T05:02:17Z</time>
      </trkpt>
      <trkpt lat="43.79888500" lon="10.93461510">
        <ele>198.00000</ele>
        <time>2010-01-01T05:02:24Z</time>
      </trkpt>
      <trkpt lat="43.79862170" lon="10.93482970">
        <ele>200.00000</ele>
        <time>2010-01-01T05:02:36Z</time>
      </trkpt>
      <trkpt lat="43.79873010" lon="10.93528030">
        <ele>202.00000</ele>
        <time>2010-01-01T05:02:50Z</time>
      </trkpt>
      <trkpt lat="43.79863720" lon="10.93570940">
        <ele>204.00000</ele>
        <time>2010-01-01T05:03:03Z</time>
      </trkpt>
      <trkpt lat="43.79927210" lon="10.93740460">
        <ele>211.00000</ele>
        <time>2010-01-01T05:03:58Z</time>
      </trkpt>
      <trkpt lat="43.79936510" lon="10.93817710">
        <ele>213.00000</ele>
        <time>2010-01-01T05:04:20Z</time>
      </trkpt>
      <trkpt lat="43.79975230" lon="10.93914270">
        <ele>211.00000</ele>
        <time>2010-01-01T05:04:52Z</time>
      </trkpt>
      <trkpt lat="43.80000000" lon="10.93933580">
        <ele>212.00000</ele>
        <time>2010-01-01T05:05:04Z</time>
      </trkpt>
      <trkpt lat="43.79948900" lon="10.94019410">
        <ele>212.00000</ele>
        <time>2010-01-01T05:05:36Z</time>
      </trkpt>
      <trkpt lat="43.79946960" lon="10.94044080">
        <ele>214.00000</ele>
        <time>2010-01-01T05:05:43Z</time>
      </trkpt>
      <trkpt lat="43.79975230" lon="10.94170680">
        <ele>226.00000</ele>
        <time>2010-01-01T05:06:21Z</time>
      </trkpt>
      <trkpt lat="43.79982580" lon="10.94220040">
        <ele>227.00000</ele>
        <time>2010-01-01T05:06:36Z</time>
      </trkpt>
      <trkpt lat="43.79967480" lon="10.94266170">
        <ele>225.00000</ele>
        <time>2010-01-01T05:06:51Z</time>
      </trkpt>
      <trkpt lat="43.79970970" lon="10.94295680">
        <ele>226.00000</ele>
        <time>2010-01-01T05:06:59Z</time>
      </trkpt>
      <trkpt lat="43.79990330" lon="10.94319280">
        <ele>231.00000</ele>
        <time>2010-01-01T05:07:09Z</time>
      </trkpt>
      <trkpt lat="43.79994580" lon="10.94350930">
        <ele>233.00000</ele>
        <time>2010-01-01T05:07:19Z</time>
      </trkpt>
      <trkpt lat="43.79978320" lon="10.94423890">
        <ele>237.00000</ele>
        <time>2010-01-01T05:07:41Z</time>
      </trkpt>
      <trkpt lat="43.79981810" lon="10.94515620">
        <ele>241.00000</ele>
        <time>2010-01-01T05:08:07Z</time>
      </trkpt>
      <trkpt lat="43.79972130" lon="10.94555850">
        <ele>240.00000</ele>
        <time>2010-01-01T05:08:20Z</time>
      </trkpt>
      <trkpt lat="43.79960900" lon="10.94538680">
        <ele>244.00000</ele>
        <time>2010-01-01T05:08:26Z</time>
      </trkpt>
      <trkpt lat="43.79936510" lon="10.94407790">
        <ele>244.00000</ele>
        <time>2010-01-01T05:09:05Z</time>
      </trkpt>
      <trkpt lat="43.79939600" lon="10.94365950">
        <ele>239.00000</ele>
        <time>2010-01-01T05:09:18Z</time>
      </trkpt>
      <trkpt lat="43.79903980" lon="10.94309090">
        <ele>245.00000</ele>
        <time>2010-01-01T05:09:39Z</time>
      </trkpt>
      <trkpt lat="43.79877270" lon="10.94320890">
        <ele>256.00000</ele>
        <time>2010-01-01T05:09:51Z</time>
      </trkpt>
      <trkpt lat="43.79838930" lon="10.94287630">
        <ele>258.00000</ele>
        <time>2010-01-01T05:10:09Z</time>
      </trkpt>
      <trkpt lat="43.79835840" lon="10.94238280">
        <ele>253.00000</ele>
        <time>2010-01-01T05:10:23Z</time>
      </trkpt>
      <trkpt lat="43.79800220" lon="10.94169610">
        <ele>254.00000</ele>
        <time>2010-01-01T05:10:47Z</time>
      </trkpt>
      <trkpt lat="43.79759950" lon="10.94203940">
        <ele>262.00000</ele>
        <time>2010-01-01T05:11:06Z</time>
      </trkpt>
      <trkpt lat="43.79665470" lon="10.94274750">
        <ele>269.00000</ele>
        <time>2010-01-01T05:11:49Z</time>
      </trkpt>
      <trkpt lat="43.79654630" lon="10.94328400">
        <ele>273.00000</ele>
        <time>2010-01-01T05:12:05Z</time>
      </trkpt>
      <trkpt lat="43.79620170" lon="10.94400280">
        <ele>275.00000</ele>
        <time>2010-01-01T05:12:30Z</time>
      </trkpt>
      <trkpt lat="43.79611260" lon="10.94442120">
        <ele>277.00000</ele>
        <time>2010-01-01T05:12:43Z</time>
      </trkpt>
      <trkpt lat="43.79606610" lon="10.94519370">
        <ele>277.00000</ele>
        <time>2010-01-01T05:13:05Z</time>
      </trkpt>
      <trkpt lat="43.79617460" lon="10.94573020">
        <ele>278.00000</ele>
        <time>2010-01-01T05:13:21Z</time>
      </trkpt>
      <trkpt lat="43.79638370" lon="10.94610570">
        <ele>280.00000</ele>
        <time>2010-01-01T05:13:35Z</time>
      </trkpt>
      <trkpt lat="43.79649210" lon="10.94732340">
        <ele>280.00000</ele>
        <time>2010-01-01T05:14:11Z</time>
      </trkpt>
      <trkpt lat="43.79625970" lon="10.94761840">
        <ele>277.00000</ele>
        <time>2010-01-01T05:14:23Z</time>
      </trkpt>
      <trkpt lat="43.79604680" lon="10.94822460">
        <ele>277.00000</ele>
        <time>2010-01-01T05:14:43Z</time>
      </trkpt>
      <trkpt lat="43.79628690" lon="10.94867520">
        <ele>282.00000</ele>
        <time>2010-01-01T05:14:59Z</time>
      </trkpt>
      <trkpt lat="43.79646500" lon="10.94935110">
        <ele>289.00000</ele>
        <time>2010-01-01T05:15:20Z</time>
      </trkpt>
      <trkpt lat="43.79663530" lon="10.94973740">
        <ele>292.00000</ele>
        <time>2010-01-01T05:15:33Z</time>
      </trkpt>
      <trkpt lat="43.79676310" lon="10.95021480">
        <ele>296.00000</ele>
        <time>2010-01-01T05:15:47Z</time>
      </trkpt>
      <trkpt lat="43.79673210" lon="10.95054740">
        <ele>301.00000</ele>
        <time>2010-01-01T05:15:57Z</time>
      </trkpt>
      <trkpt lat="43.79659660" lon="10.95072440">
        <ele>306.00000</ele>
        <time>2010-01-01T05:16:05Z</time>
      </trkpt>
      <trkpt lat="43.79632170" lon="10.95061180">
        <ele>303.00000</ele>
        <time>2010-01-01T05:16:16Z</time>
      </trkpt>
      <trkpt lat="43.79609710" lon="10.95040790">
        <ele>299.00000</ele>
        <time>2010-01-01T05:16:27Z</time>
      </trkpt>
      <trkpt lat="43.79555120" lon="10.95020410">
        <ele>300.00000</ele>
        <time>2010-01-01T05:16:49Z</time>
      </trkpt>
      <trkpt lat="43.79505170" lon="10.95020410">
        <ele>300.00000</ele>
        <time>2010-01-01T05:17:09Z</time>
      </trkpt>
      <trkpt lat="43.79485420" lon="10.95034360">
        <ele>300.00000</ele>
        <time>2010-01-01T05:17:18Z</time>
      </trkpt>
      <trkpt lat="43.79481930" lon="10.95068690">
        <ele>299.00000</ele>
        <time>2010-01-01T05:17:28Z</time>
      </trkpt>
      <trkpt lat="43.79487740" lon="10.95158270">
        <ele>300.00000</ele>
        <time>2010-01-01T05:17:54Z</time>
      </trkpt>
      <trkpt lat="43.79474960" lon="10.95182950">
        <ele>299.00000</ele>
        <time>2010-01-01T05:18:03Z</time>
      </trkpt>
      <trkpt lat="43.79386680" lon="10.95178120">
        <ele>289.00000</ele>
        <time>2010-01-01T05:18:38Z</time>
      </trkpt>
      <trkpt lat="43.79357630" lon="10.95188310">
        <ele>291.00000</ele>
        <time>2010-01-01T05:18:50Z</time>
      </trkpt>
      <trkpt lat="43.79346410" lon="10.95246790">
        <ele>288.00000</ele>
        <time>2010-01-01T05:19:08Z</time>
      </trkpt>
      <trkpt lat="43.79380870" lon="10.95292920">
        <ele>287.00000</ele>
        <time>2010-01-01T05:19:27Z</time>
      </trkpt>
      <trkpt lat="43.79376610" lon="10.95317600">
        <ele>288.00000</ele>
        <time>2010-01-01T05:19:34Z</time>
      </trkpt>
      <trkpt lat="43.79296840" lon="10.95339050">
        <ele>283.00000</ele>
        <time>2010-01-01T05:20:07Z</time>
      </trkpt>
      <trkpt lat="43.79266250" lon="10.95337450">
        <ele>281.00000</ele>
        <time>2010-01-01T05:20:19Z</time>
      </trkpt>
      <trkpt lat="43.79221720" lon="10.95373390">
        <ele>281.00000</ele>
        <time>2010-01-01T05:20:40Z</time>
      </trkpt>
      <trkpt lat="43.79180670" lon="10.95373390">
        <ele>276.00000</ele>
        <time>2010-01-01T05:20:56Z</time>
      </trkpt>
      <trkpt lat="43.79098580" lon="10.95489790">
        <ele>267.00000</ele>
        <time>2010-01-01T05:21:43Z</time>
      </trkpt>
      <trkpt lat="43.79095480" lon="10.95542900">
        <ele>262.00000</ele>
        <time>2010-01-01T05:21:59Z</time>
      </trkpt>
      <trkpt lat="43.79121810" lon="10.95620150">
        <ele>264.00000</ele>
        <time>2010-01-01T05:22:23Z</time>
      </trkpt>
      <trkpt lat="43.79069150" lon="10.95633020">
        <ele>258.00000</ele>
        <time>2010-01-01T05:22:45Z</time>
      </trkpt>
      <trkpt lat="43.79024230" lon="10.95615860">
        <ele>253.00000</ele>
        <time>2010-01-01T05:23:03Z</time>
      </trkpt>
      <trkpt lat="43.78982400" lon="10.95572940">
        <ele>254.00000</ele>
        <time>2010-01-01T05:23:24Z</time>
      </trkpt>
      <trkpt lat="43.78943290" lon="10.95553630">
        <ele>252.00000</ele>
        <time>2010-01-01T05:23:41Z</time>
      </trkpt>
      <trkpt lat="43.78862740" lon="10.95490870">
        <ele>239.00000</ele>
        <time>2010-01-01T05:24:18Z</time>
      </trkpt>
      <trkpt lat="43.78779480" lon="10.95416300">
        <ele>238.00000</ele>
        <time>2010-01-01T05:24:58Z</time>
      </trkpt>
      <trkpt lat="43.78658650" lon="10.95381970">
        <ele>228.00000</ele>
        <time>2010-01-01T05:25:47Z</time>
      </trkpt>
      <trkpt lat="43.78595140" lon="10.95328330">
        <ele>219.00000</ele>
        <time>2010-01-01T05:26:17Z</time>
      </trkpt>
      <trkpt lat="43.78468120" lon="10.95275750">
        <ele>213.00000</ele>
        <time>2010-01-01T05:27:10Z</time>
      </trkpt>
      <trkpt lat="43.78444880" lon="10.95274680">
        <ele>212.00000</ele>
        <time>2010-01-01T05:27:19Z</time>
      </trkpt>
      <trkpt lat="43.78434030" lon="10.95255910">
        <ele>208.00000</ele>
        <time>2010-01-01T05:27:26Z</time>
      </trkpt>
      <trkpt lat="43.78391820" lon="10.95224790">
        <ele>200.00000</ele>
        <time>2010-01-01T05:27:45Z</time>
      </trkpt>
      <trkpt lat="43.78330240" lon="10.95143790">
        <ele>191.00000</ele>
        <time>2010-01-01T05:28:19Z</time>
      </trkpt>
      <trkpt lat="43.78299260" lon="10.95133060">
        <ele>187.00000</ele>
        <time>2010-01-01T05:28:32Z</time>
      </trkpt>
      <trkpt lat="43.78200500" lon="10.95055810">
        <ele>180.00000</ele>
        <time>2010-01-01T05:29:17Z</time>
      </trkpt>
      <trkpt lat="43.78077720" lon="10.94944230">
        <ele>172.00000</ele>
        <time>2010-01-01T05:30:16Z</time>
      </trkpt>
      <trkpt lat="43.78065330" lon="10.94894880">
        <ele>166.00000</ele>
        <time>2010-01-01T05:30:31Z</time>
      </trkpt>
      <trkpt lat="43.78020400" lon="10.94862690">
        <ele>160.00000</ele>
        <time>2010-01-01T05:30:52Z</time>
      </trkpt>
      <trkpt lat="43.77956880" lon="10.94796180">
        <ele>155.00000</ele>
        <time>2010-01-01T05:31:23Z</time>
      </trkpt>
      <trkpt lat="43.77893360" lon="10.94766130">
        <ele>154.00000</ele>
        <time>2010-01-01T05:31:50Z</time>
      </trkpt>
      <trkpt lat="43.77829840" lon="10.94723220">
        <ele>152.00000</ele>
        <time>2010-01-01T05:32:19Z</time>
      </trkpt>
      <trkpt lat="43.77787240" lon="10.94757550">
        <ele>150.00000</ele>
        <time>2010-01-01T05:32:38Z</time>
      </trkpt>
      <trkpt lat="43.77727590" lon="10.94781160">
        <ele>142.00000</ele>
        <time>2010-01-01T05:33:03Z</time>
      </trkpt>
      <trkpt lat="43.77719840" lon="10.94828360">
        <ele>137.00000</ele>
        <time>2010-01-01T05:33:17Z</time>
      </trkpt>
      <trkpt lat="43.77718290" lon="10.94882010">
        <ele>129.00000</ele>
        <time>2010-01-01T05:33:33Z</time>
      </trkpt>
      <trkpt lat="43.77732230" lon="10.94922780">
        <ele>124.00000</ele>
        <time>2010-01-01T05:33:46Z</time>
      </trkpt>
      <trkpt lat="43.77794210" lon="10.94937800">
        <ele>125.00000</ele>
        <time>2010-01-01T05:34:11Z</time>
      </trkpt>
      <trkpt lat="43.77825190" lon="10.94978570">
        <ele>119.00000</ele>
        <time>2010-01-01T05:34:28Z</time>
      </trkpt>
      <trkpt lat="43.77812800" lon="10.94993590">
        <ele>119.00000</ele>
        <time>2010-01-01T05:34:35Z</time>
      </trkpt>
      <trkpt lat="43.77749280" lon="10.95004320">
        <ele>122.00000</ele>
        <time>2010-01-01T05:35:00Z</time>
      </trkpt>
      <trkpt lat="43.77705900" lon="10.94976420">
        <ele>123.00000</ele>
        <time>2010-01-01T05:35:19Z</time>
      </trkpt>
      <trkpt lat="43.77664060" lon="10.94972130">
        <ele>127.00000</ele>
        <time>2010-01-01T05:35:36Z</time>
      </trkpt>
      <trkpt lat="43.77625330" lon="10.94948530">
        <ele>124.00000</ele>
        <time>2010-01-01T05:35:53Z</time>
      </trkpt>
      <trkpt lat="43.77588150" lon="10.94957110">
        <ele>129.00000</ele>
        <time>2010-01-01T05:36:08Z</time>
      </trkpt>
      <trkpt lat="43.77575360" lon="10.94978030">
        <ele>134.00000</ele>
        <time>2010-01-01T05:36:16Z</time>
      </trkpt>
      <trkpt lat="43.77505260" lon="10.95015580">
        <ele>135.00000</ele>
        <time>2010-01-01T05:36:46Z</time>
      </trkpt>
      <trkpt lat="43.77478920" lon="10.95052060">
        <ele>138.00000</ele>
        <time>2010-01-01T05:37:01Z</time>
      </trkpt>
      <trkpt lat="43.77451800" lon="10.95107310">
        <ele>141.00000</ele>
        <time>2010-01-01T05:37:20Z</time>
      </trkpt>
      <trkpt lat="43.77427790" lon="10.95108920">
        <ele>139.00000</ele>
        <time>2010-01-01T05:37:30Z</time>
      </trkpt>
      <trkpt lat="43.77385560" lon="10.95126090">
        <ele>139.00000</ele>
        <time>2010-01-01T05:37:48Z</time>
      </trkpt>
      <trkpt lat="43.77292210" lon="10.95085850">
        <ele>141.00000</ele>
        <time>2010-01-01T05:38:27Z</time>
      </trkpt>
      <trkpt lat="43.77151210" lon="10.95051520">
        <ele>128.00000</ele>
        <time>2010-01-01T05:39:24Z</time>
      </trkpt>
      <trkpt lat="43.77084590" lon="10.95092290">
        <ele>124.00000</ele>
        <time>2010-01-01T05:39:53Z</time>
      </trkpt>
      <trkpt lat="43.77052820" lon="10.95094440">
        <ele>121.00000</ele>
        <time>2010-01-01T05:40:06Z</time>
      </trkpt>
      <trkpt lat="43.76992780" lon="10.95084240">
        <ele>116.00000</ele>
        <time>2010-01-01T05:40:30Z</time>
      </trkpt>
      <trkpt lat="43.76942420" lon="10.95045620">
        <ele>112.00000</ele>
        <time>2010-01-01T05:40:53Z</time>
      </trkpt>
      <trkpt lat="43.76894000" lon="10.94991440">
        <ele>106.00000</ele>
        <time>2010-01-01T05:41:18Z</time>
      </trkpt>
      <trkpt lat="43.76876950" lon="10.94920630">
        <ele>102.00000</ele>
        <time>2010-01-01T05:41:40Z</time>
      </trkpt>
      <trkpt lat="43.76845960" lon="10.94922780">
        <ele>96.000000</ele>
        <time>2010-01-01T05:41:52Z</time>
      </trkpt>
      <trkpt lat="43.76853710" lon="10.95036500">
        <ele>93.000000</ele>
        <time>2010-01-01T05:42:25Z</time>
      </trkpt>
      <trkpt lat="43.76824270" lon="10.95066540">
        <ele>86.000000</ele>
        <time>2010-01-01T05:42:40Z</time>
      </trkpt>
      <trkpt lat="43.76770030" lon="10.95032210">
        <ele>88.000000</ele>
        <time>2010-01-01T05:43:04Z</time>
      </trkpt>
      <trkpt lat="43.76722770" lon="10.94956040">
        <ele>93.000000</ele>
        <time>2010-01-01T05:43:33Z</time>
      </trkpt>
      <trkpt lat="43.76664270" lon="10.94887910">
        <ele>91.000000</ele>
        <time>2010-01-01T05:44:03Z</time>
      </trkpt>
      <trkpt lat="43.76602680" lon="10.94841240">
        <ele>94.000000</ele>
        <time>2010-01-01T05:44:31Z</time>
      </trkpt>
      <trkpt lat="43.76342340" lon="10.94714640">
        <ele>83.000000</ele>
        <time>2010-01-01T05:46:22Z</time>
      </trkpt>
      <trkpt lat="43.75733280" lon="10.94517230">
        <ele>41.000000</ele>
        <time>2010-01-01T05:50:32Z</time>
      </trkpt>
      <trkpt lat="43.75513200" lon="10.94347710">
        <ele>40.000000</ele>
        <time>2010-01-01T05:52:13Z</time>
      </trkpt>
      <trkpt lat="43.75114870" lon="10.94225400">
        <ele>39.000000</ele>
        <time>2010-01-01T05:54:56Z</time>
      </trkpt>
      <trkpt lat="43.74815710" lon="10.93864910">
        <ele>38.000000</ele>
        <time>2010-01-01T05:57:35Z</time>
      </trkpt>
      <trkpt lat="43.74479330" lon="10.93688960">
        <ele>37.000000</ele>
        <time>2010-01-01T05:59:59Z</time>
      </trkpt>
      <trkpt lat="43.74197200" lon="10.93431470">
        <ele>35.000000</ele>
        <time>2010-01-01T06:02:14Z</time>
      </trkpt>
      <trkpt lat="43.74093330" lon="10.93416450">
        <ele>35.000000</ele>
        <time>2010-01-01T06:02:56Z</time>
      </trkpt>
      <trkpt lat="43.74034420" lon="10.93377820">
        <ele>35.000000</ele>
        <time>2010-01-01T06:03:22Z</time>
      </trkpt>
      <trkpt lat="43.73890240" lon="10.93216890">
        <ele>31.000000</ele>
        <time>2010-01-01T06:04:36Z</time>
      </trkpt>
      <trkpt lat="43.73835980" lon="10.93216890">
        <ele>30.000000</ele>
        <time>2010-01-01T06:04:58Z</time>
      </trkpt>
      <trkpt lat="43.73735210" lon="10.93326330">
        <ele>31.000000</ele>
        <time>2010-01-01T06:05:49Z</time>
      </trkpt>
      <trkpt lat="43.73577070" lon="10.93259810">
        <ele>30.000000</ele>
        <time>2010-01-01T06:06:56Z</time>
      </trkpt>
      <trkpt lat="43.73454590" lon="10.93240490">
        <ele>29.000000</ele>
        <time>2010-01-01T06:07:45Z</time>
      </trkpt>
      <trkpt lat="43.73339860" lon="10.93165390">
        <ele>29.000000</ele>
        <time>2010-01-01T06:08:36Z</time>
      </trkpt>
      <trkpt lat="43.73266990" lon="10.93154660">
        <ele>30.000000</ele>
        <time>2010-01-01T06:09:05Z</time>
      </trkpt>
      <trkpt lat="43.72959980" lon="10.93180410">
        <ele>28.000000</ele>
        <time>2010-01-01T06:11:08Z</time>
      </trkpt>
      <trkpt lat="43.72929360" lon="10.93157350">
        <ele>28.000000</ele>
        <time>2010-01-01T06:11:22Z</time>
      </trkpt>
      <trkpt lat="43.72881680" lon="10.93381580">
        <ele>28.000000</ele>
        <time>2010-01-01T06:12:30Z</time>
      </trkpt>
      <trkpt lat="43.72754140" lon="10.93783370">
        <ele>27.000000</ele>
        <time>2010-01-01T06:14:37Z</time>
      </trkpt>
      <trkpt lat="43.72735150" lon="10.93813410">
        <ele>27.000000</ele>
        <time>2010-01-01T06:14:48Z</time>
      </trkpt>
      <trkpt lat="43.72735540" lon="10.93847210">
        <ele>27.000000</ele>
        <time>2010-01-01T06:14:58Z</time>
      </trkpt>
      <trkpt lat="43.72557600" lon="10.94438370">
        <ele>28.000000</ele>
        <time>2010-01-01T06:18:03Z</time>
      </trkpt>
      <trkpt lat="43.72538610" lon="10.94478600">
        <ele>29.000000</ele>
        <time>2010-01-01T06:18:17Z</time>
      </trkpt>
      <trkpt lat="43.72468440" lon="10.94553700">
        <ele>29.000000</ele>
        <time>2010-01-01T06:18:53Z</time>
      </trkpt>
      <trkpt lat="43.72490920" lon="10.94586430">
        <ele>28.000000</ele>
        <time>2010-01-01T06:19:06Z</time>
      </trkpt>
      <trkpt lat="43.72564190" lon="10.94728580">
        <ele>26.000000</ele>
        <time>2010-01-01T06:19:56Z</time>
      </trkpt>
      <trkpt lat="43.72633200" lon="10.94842850">
        <ele>26.000000</ele>
        <time>2010-01-01T06:20:39Z</time>
      </trkpt>
      <trkpt lat="43.72769260" lon="10.95017190">
        <ele>28.000000</ele>
        <time>2010-01-01T06:21:54Z</time>
      </trkpt>
      <trkpt lat="43.72896020" lon="10.95085850">
        <ele>29.000000</ele>
        <time>2010-01-01T06:22:48Z</time>
      </trkpt>
      <trkpt lat="43.72949910" lon="10.95131990">
        <ele>30.000000</ele>
        <time>2010-01-01T06:23:13Z</time>
      </trkpt>
      <trkpt lat="43.73097210" lon="10.95292920">
        <ele>28.000000</ele>
        <time>2010-01-01T06:24:29Z</time>
      </trkpt>
      <trkpt lat="43.73104180" lon="10.95322960">
        <ele>28.000000</ele>
        <time>2010-01-01T06:24:38Z</time>
      </trkpt>
      <trkpt lat="43.73122020" lon="10.95318670">
        <ele>29.000000</ele>
        <time>2010-01-01T06:24:45Z</time>
      </trkpt>
      <trkpt lat="43.73240630" lon="10.95438830">
        <ele>29.000000</ele>
        <time>2010-01-01T06:25:44Z</time>
      </trkpt>
      <trkpt lat="43.73294890" lon="10.95525740">
        <ele>32.000000</ele>
        <time>2010-01-01T06:26:17Z</time>
      </trkpt>
      <trkpt lat="43.73484820" lon="10.95902320">
        <ele>31.000000</ele>
        <time>2010-01-01T06:28:30Z</time>
      </trkpt>
      <trkpt lat="43.73715060" lon="10.96585750">
        <ele>27.000000</ele>
        <time>2010-01-01T06:32:08Z</time>
      </trkpt>
      <trkpt lat="43.73722810" lon="10.96660850">
        <ele>27.000000</ele>
        <time>2010-01-01T06:32:30Z</time>
      </trkpt>
      <trkpt lat="43.73719710" lon="10.96722000">
        <ele>26.000000</ele>
        <time>2010-01-01T06:32:48Z</time>
      </trkpt>
      <trkpt lat="43.73711960" lon="10.96746680">
        <ele>25.000000</ele>
        <time>2010-01-01T06:32:55Z</time>
      </trkpt>
      <trkpt lat="43.73724360" lon="10.96763840">
        <ele>26.000000</ele>
        <time>2010-01-01T06:33:02Z</time>
      </trkpt>
      <trkpt lat="43.73729780" lon="10.96804610">
        <ele>26.000000</ele>
        <time>2010-01-01T06:33:14Z</time>
      </trkpt>
      <trkpt lat="43.73941400" lon="10.97309940">
        <ele>28.000000</ele>
        <time>2010-01-01T06:36:03Z</time>
      </trkpt>
      <trkpt lat="43.73968530" lon="10.97341060">
        <ele>30.000000</ele>
        <time>2010-01-01T06:36:17Z</time>
      </trkpt>
      <trkpt lat="43.74051470" lon="10.97371100">
        <ele>33.000000</ele>
        <time>2010-01-01T06:36:52Z</time>
      </trkpt>
      <trkpt lat="43.74084810" lon="10.97396850">
        <ele>33.000000</ele>
        <time>2010-01-01T06:37:07Z</time>
      </trkpt>
      <trkpt lat="43.74235180" lon="10.97633950">
        <ele>29.000000</ele>
        <time>2010-01-01T06:38:38Z</time>
      </trkpt>
      <trkpt lat="43.74266180" lon="10.97751970">
        <ele>27.000000</ele>
        <time>2010-01-01T06:39:15Z</time>
      </trkpt>
      <trkpt lat="43.74537460" lon="10.98162880">
        <ele>30.000000</ele>
        <time>2010-01-01T06:41:56Z</time>
      </trkpt>
      <trkpt lat="43.74521190" lon="10.98339910">
        <ele>29.000000</ele>
        <time>2010-01-01T06:42:47Z</time>
      </trkpt>
      <trkpt lat="43.74520410" lon="10.98421450">
        <ele>29.000000</ele>
        <time>2010-01-01T06:43:11Z</time>
      </trkpt>
      <trkpt lat="43.74510720" lon="10.98429500">
        <ele>29.000000</ele>
        <time>2010-01-01T06:43:15Z</time>
      </trkpt>
      <trkpt lat="43.74509000" lon="10.98443000">
        <ele>29.000000</ele>
        <time>2010-01-01T06:43:19Z</time>
      </trkpt>
      <trkpt lat="43.74516920" lon="10.98454710">
        <ele>30.000000</ele>
        <time>2010-01-01T06:43:24Z</time>
      </trkpt>
      <trkpt lat="43.74511000" lon="10.98774000">
        <ele>28.000000</ele>
        <time>2010-01-01T06:44:56Z</time>
      </trkpt>
      <trkpt lat="43.74513000" lon="10.98833000">
        <ele>29.000000</ele>
        <time>2010-01-01T06:45:13Z</time>
      </trkpt>
      <trkpt lat="43.74558000" lon="10.99017000">
        <ele>31.000000</ele>
        <time>2010-01-01T06:46:09Z</time>
      </trkpt>
      <trkpt lat="43.74570000" lon="10.99100000">
        <ele>34.000000</ele>
        <time>2010-01-01T06:46:34Z</time>
      </trkpt>
      <trkpt lat="43.74573000" lon="10.99142000">
        <ele>32.000000</ele>
        <time>2010-01-01T06:46:46Z</time>
      </trkpt>
      <trkpt lat="43.74567000" lon="10.99145000">
        <ele>32.000000</ele>
        <time>2010-01-01T06:46:49Z</time>
      </trkpt>
      <trkpt lat="43.74565000" lon="10.99153000">
        <ele>31.000000</ele>
        <time>2010-01-01T06:46:51Z</time>
      </trkpt>
      <trkpt lat="43.74569000" lon="10.99172000">
        <ele>31.000000</ele>
        <time>2010-01-01T06:46:57Z</time>
      </trkpt>
      <trkpt lat="43.74569000" lon="10.99202000">
        <ele>31.000000</ele>
        <time>2010-01-01T06:47:06Z</time>
      </trkpt>
      <trkpt lat="43.74566000" lon="10.99244000">
        <ele>31.000000</ele>
        <time>2010-01-01T06:47:18Z</time>
      </trkpt>
      <trkpt lat="43.74562000" lon="10.99263000">
        <ele>31.000000</ele>
        <time>2010-01-01T06:47:23Z</time>
      </trkpt>
      <trkpt lat="43.74552000" lon="10.99290000">
        <ele>29.000000</ele>
        <time>2010-01-01T06:47:32Z</time>
      </trkpt>
      <trkpt lat="43.74533000" lon="10.99319000">
        <ele>29.000000</ele>
        <time>2010-01-01T06:47:44Z</time>
      </trkpt>
      <trkpt lat="43.74509000" lon="10.99344000">
        <ele>31.000000</ele>
        <time>2010-01-01T06:47:56Z</time>
      </trkpt>
      <trkpt lat="43.74005000" lon="10.99820000">
        <ele>33.000000</ele>
        <time>2010-01-01T06:52:00Z</time>
      </trkpt>
      <trkpt lat="43.73946000" lon="10.99877000">
        <ele>30.000000</ele>
        <time>2010-01-01T06:52:29Z</time>
      </trkpt>
      <trkpt lat="43.73908000" lon="10.99940000">
        <ele>30.000000</ele>
        <time>2010-01-01T06:52:52Z</time>
      </trkpt>
      <trkpt lat="43.73889000" lon="10.99982000">
        <ele>32.000000</ele>
        <time>2010-01-01T06:53:07Z</time>
      </trkpt>
      <trkpt lat="43.73864000" lon="11.00049000">
        <ele>34.000000</ele>
        <time>2010-01-01T06:53:29Z</time>
      </trkpt>
      <trkpt lat="43.73843000" lon="11.00125000">
        <ele>31.000000</ele>
        <time>2010-01-01T06:53:52Z</time>
      </trkpt>
      <trkpt lat="43.73758000" lon="11.00385000">
        <ele>29.000000</ele>
        <time>2010-01-01T06:55:15Z</time>
      </trkpt>
      <trkpt lat="43.73751000" lon="11.00424000">
        <ele>31.000000</ele>
        <time>2010-01-01T06:55:26Z</time>
      </trkpt>
      <trkpt lat="43.73746000" lon="11.00470000">
        <ele>34.000000</ele>
        <time>2010-01-01T06:55:40Z</time>
      </trkpt>
      <trkpt lat="43.73748000" lon="11.00690000">
        <ele>32.000000</ele>
        <time>2010-01-01T06:56:43Z</time>
      </trkpt>
      <trkpt lat="43.73746840" lon="11.00708300">
        <ele>30.000000</ele>
        <time>2010-01-01T06:56:49Z</time>
      </trkpt>
      <trkpt lat="43.73755000" lon="11.00716000">
        <ele>31.000000</ele>
        <time>2010-01-01T06:56:53Z</time>
      </trkpt>
      <trkpt lat="43.73756000" lon="11.00984000">
        <ele>32.000000</ele>
        <time>2010-01-01T06:58:10Z</time>
      </trkpt>
      <trkpt lat="43.73753000" lon="11.01031000">
        <ele>32.000000</ele>
        <time>2010-01-01T06:58:24Z</time>
      </trkpt>
      <trkpt lat="43.73749000" lon="11.01055000">
        <ele>33.000000</ele>
        <time>2010-01-01T06:58:31Z</time>
      </trkpt>
      <trkpt lat="43.73694000" lon="11.01292000">
        <ele>32.000000</ele>
        <time>2010-01-01T06:59:43Z</time>
      </trkpt>
      <trkpt lat="43.73662730" lon="11.01431960">
        <ele>33.000000</ele>
        <time>2010-01-01T07:00:25Z</time>
      </trkpt>
      <trkpt lat="43.73626000" lon="11.01506000">
        <ele>34.000000</ele>
        <time>2010-01-01T07:00:51Z</time>
      </trkpt>
      <trkpt lat="43.73518930" lon="11.01698570">
        <ele>29.000000</ele>
        <time>2010-01-01T07:02:01Z</time>
      </trkpt>
      <trkpt lat="43.73420000" lon="11.01870000">
        <ele>33.000000</ele>
        <time>2010-01-01T07:03:05Z</time>
      </trkpt>
      <trkpt lat="43.73358000" lon="11.01939000">
        <ele>31.000000</ele>
        <time>2010-01-01T07:03:37Z</time>
      </trkpt>
      <trkpt lat="43.73344510" lon="11.01940510">
        <ele>31.000000</ele>
        <time>2010-01-01T07:03:42Z</time>
      </trkpt>
      <trkpt lat="43.73333270" lon="11.01965720">
        <ele>31.000000</ele>
        <time>2010-01-01T07:03:51Z</time>
      </trkpt>
      <trkpt lat="43.73335000" lon="11.01976000">
        <ele>31.000000</ele>
        <time>2010-01-01T07:03:54Z</time>
      </trkpt>
      <trkpt lat="43.73343000" lon="11.01976000">
        <ele>31.000000</ele>
        <time>2010-01-01T07:03:57Z</time>
      </trkpt>
      <trkpt lat="43.73414280" lon="11.02037070">
        <ele>33.000000</ele>
        <time>2010-01-01T07:04:31Z</time>
      </trkpt>
      <trkpt lat="43.73380940" lon="11.02124510">
        <ele>38.000000</ele>
        <time>2010-01-01T07:04:59Z</time>
      </trkpt>
      <trkpt lat="43.73376290" lon="11.02125040">
        <ele>38.000000</ele>
        <time>2010-01-01T07:05:01Z</time>
      </trkpt>
      <trkpt lat="43.73316210" lon="11.02321920">
        <ele>45.000000</ele>
        <time>2010-01-01T07:06:03Z</time>
      </trkpt>
      <trkpt lat="43.73301100" lon="11.02352490">
        <ele>50.000000</ele>
        <time>2010-01-01T07:06:14Z</time>
      </trkpt>
      <trkpt lat="43.73327840" lon="11.02381460">
        <ele>54.000000</ele>
        <time>2010-01-01T07:06:27Z</time>
      </trkpt>
      <trkpt lat="43.73329000" lon="11.02404530">
        <ele>57.000000</ele>
        <time>2010-01-01T07:06:34Z</time>
      </trkpt>
      <trkpt lat="43.73341020" lon="11.02431350">
        <ele>58.000000</ele>
        <time>2010-01-01T07:06:43Z</time>
      </trkpt>
      <trkpt lat="43.73341020" lon="11.02448520">
        <ele>59.000000</ele>
        <time>2010-01-01T07:06:48Z</time>
      </trkpt>
      <trkpt lat="43.73329000" lon="11.02472000">
        <ele>62.000000</ele>
        <time>2010-01-01T07:06:56Z</time>
      </trkpt>
      <trkpt lat="43.73280000" lon="11.02548000">
        <ele>83.000000</ele>
        <time>2010-01-01T07:07:26Z</time>
      </trkpt>
      <trkpt lat="43.73263110" lon="11.02588530">
        <ele>87.000000</ele>
        <time>2010-01-01T07:07:39Z</time>
      </trkpt>
      <trkpt lat="43.73226000" lon="11.02638000">
        <ele>97.000000</ele>
        <time>2010-01-01T07:08:00Z</time>
      </trkpt>
      <trkpt lat="43.73203000" lon="11.02676000">
        <ele>100.00000</ele>
        <time>2010-01-01T07:08:14Z</time>
      </trkpt>
      <trkpt lat="43.73145000" lon="11.02819000">
        <ele>111.00000</ele>
        <time>2010-01-01T07:09:02Z</time>
      </trkpt>
      <trkpt lat="43.73092000" lon="11.02907000">
        <ele>111.00000</ele>
        <time>2010-01-01T07:09:35Z</time>
      </trkpt>
      <trkpt lat="43.73034000" lon="11.03126000">
        <ele>126.00000</ele>
        <time>2010-01-01T07:10:42Z</time>
      </trkpt>
      <trkpt lat="43.73027000" lon="11.03181000">
        <ele>127.00000</ele>
        <time>2010-01-01T07:10:58Z</time>
      </trkpt>
      <trkpt lat="43.73016000" lon="11.03235000">
        <ele>128.00000</ele>
        <time>2010-01-01T07:11:15Z</time>
      </trkpt>
      <trkpt lat="43.73018000" lon="11.03266000">
        <ele>128.00000</ele>
        <time>2010-01-01T07:11:24Z</time>
      </trkpt>
      <trkpt lat="43.73041000" lon="11.03363000">
        <ele>129.00000</ele>
        <time>2010-01-01T07:11:53Z</time>
      </trkpt>
      <trkpt lat="43.73039000" lon="11.03389000">
        <ele>133.00000</ele>
        <time>2010-01-01T07:12:01Z</time>
      </trkpt>
      <trkpt lat="43.73023000" lon="11.03434000">
        <ele>140.00000</ele>
        <time>2010-01-01T07:12:15Z</time>
      </trkpt>
      <trkpt lat="43.73020000" lon="11.03453000">
        <ele>141.00000</ele>
        <time>2010-01-01T07:12:21Z</time>
      </trkpt>
      <trkpt lat="43.73023000" lon="11.03473000">
        <ele>141.00000</ele>
        <time>2010-01-01T07:12:27Z</time>
      </trkpt>
      <trkpt lat="43.73045000" lon="11.03544000">
        <ele>143.00000</ele>
        <time>2010-01-01T07:12:49Z</time>
      </trkpt>
      <trkpt lat="43.73063000" lon="11.03648000">
        <ele>145.00000</ele>
        <time>2010-01-01T07:13:20Z</time>
      </trkpt>
      <trkpt lat="43.73066000" lon="11.03724000">
        <ele>146.00000</ele>
        <time>2010-01-01T07:13:42Z</time>
      </trkpt>
      <trkpt lat="43.73062000" lon="11.03810000">
        <ele>147.00000</ele>
        <time>2010-01-01T07:14:07Z</time>
      </trkpt>
      <trkpt lat="43.73074000" lon="11.03856000">
        <ele>149.00000</ele>
        <time>2010-01-01T07:14:21Z</time>
      </trkpt>
      <trkpt lat="43.73089000" lon="11.03889000">
        <ele>148.00000</ele>
        <time>2010-01-01T07:14:32Z</time>
      </trkpt>
      <trkpt lat="43.73116000" lon="11.03929000">
        <ele>148.00000</ele>
        <time>2010-01-01T07:14:48Z</time>
      </trkpt>
      <trkpt lat="43.73148000" lon="11.03962000">
        <ele>149.00000</ele>
        <time>2010-01-01T07:15:04Z</time>
      </trkpt>
      <trkpt lat="43.73183000" lon="11.03990000">
        <ele>150.00000</ele>
        <time>2010-01-01T07:15:20Z</time>
      </trkpt>
      <trkpt lat="43.73202000" lon="11.04017000">
        <ele>153.00000</ele>
        <time>2010-01-01T07:15:31Z</time>
      </trkpt>
      <trkpt lat="43.73208000" lon="11.04037000">
        <ele>154.00000</ele>
        <time>2010-01-01T07:15:38Z</time>
      </trkpt>
      <trkpt lat="43.73207000" lon="11.04056000">
        <ele>155.00000</ele>
        <time>2010-01-01T07:15:43Z</time>
      </trkpt>
      <trkpt lat="43.73198000" lon="11.04091000">
        <ele>155.00000</ele>
        <time>2010-01-01T07:15:54Z</time>
      </trkpt>
      <trkpt lat="43.73197000" lon="11.04115000">
        <ele>156.00000</ele>
        <time>2010-01-01T07:16:01Z</time>
      </trkpt>
      <trkpt lat="43.73202000" lon="11.04139000">
        <ele>159.00000</ele>
        <time>2010-01-01T07:16:08Z</time>
      </trkpt>
      <trkpt lat="43.73233000" lon="11.04222000">
        <ele>165.00000</ele>
        <time>2010-01-01T07:16:35Z</time>
      </trkpt>
      <trkpt lat="43.73254000" lon="11.04299000">
        <ele>167.00000</ele>
        <time>2010-01-01T07:16:59Z</time>
      </trkpt>
      <trkpt lat="43.73264000" lon="11.04320000">
        <ele>167.00000</ele>
        <time>2010-01-01T07:17:06Z</time>
      </trkpt>
      <trkpt lat="43.73286000" lon="11.04347000">
        <ele>168.00000</ele>
        <time>2010-01-01T07:17:18Z</time>
      </trkpt>
      <trkpt lat="43.73389000" lon="11.04449000">
        <ele>173.00000</ele>
        <time>2010-01-01T07:18:09Z</time>
      </trkpt>
      <trkpt lat="43.73406000" lon="11.04456000">
        <ele>173.00000</ele>
        <time>2010-01-01T07:18:16Z</time>
      </trkpt>
      <trkpt lat="43.73491000" lon="11.04472000">
        <ele>168.00000</ele>
        <time>2010-01-01T07:18:50Z</time>
      </trkpt>
      <trkpt lat="43.73524000" lon="11.04496000">
        <ele>169.00000</ele>
        <time>2010-01-01T07:19:05Z</time>
      </trkpt>
      <trkpt lat="43.73538000" lon="11.04513000">
        <ele>169.00000</ele>
        <time>2010-01-01T07:19:12Z</time>
      </trkpt>
      <trkpt lat="43.73624000" lon="11.04659000">
        <ele>170.00000</ele>
        <time>2010-01-01T07:20:07Z</time>
      </trkpt>
      <trkpt lat="43.73751000" lon="11.04881000">
        <ele>169.00000</ele>
        <time>2010-01-01T07:21:29Z</time>
      </trkpt>
      <trkpt lat="43.73766000" lon="11.04924000">
        <ele>168.00000</ele>
        <time>2010-01-01T07:21:43Z</time>
      </trkpt>
      <trkpt lat="43.73783270" lon="11.05044360">
        <ele>170.00000</ele>
        <time>2010-01-01T07:22:18Z</time>
      </trkpt>
      <trkpt lat="43.73795000" lon="11.05201000">
        <ele>167.00000</ele>
        <time>2010-01-01T07:23:04Z</time>
      </trkpt>
      <trkpt lat="43.73809000" lon="11.05384000">
        <ele>165.00000</ele>
        <time>2010-01-01T07:23:57Z</time>
      </trkpt>
      <trkpt lat="43.73815000" lon="11.05560000">
        <ele>169.00000</ele>
        <time>2010-01-01T07:24:48Z</time>
      </trkpt>
      <trkpt lat="43.73821000" lon="11.05607000">
        <ele>170.00000</ele>
        <time>2010-01-01T07:25:02Z</time>
      </trkpt>
      <trkpt lat="43.73837000" lon="11.05651000">
        <ele>168.00000</ele>
        <time>2010-01-01T07:25:16Z</time>
      </trkpt>
      <trkpt lat="43.73879000" lon="11.05722000">
        <ele>167.00000</ele>
        <time>2010-01-01T07:25:42Z</time>
      </trkpt>
      <trkpt lat="43.73955000" lon="11.05822000">
        <ele>167.00000</ele>
        <time>2010-01-01T07:26:24Z</time>
      </trkpt>
      <trkpt lat="43.74044000" lon="11.05960000">
        <ele>166.00000</ele>
        <time>2010-01-01T07:27:18Z</time>
      </trkpt>
      <trkpt lat="43.74122000" lon="11.06121000">
        <ele>166.00000</ele>
        <time>2010-01-01T07:28:14Z</time>
      </trkpt>
      <trkpt lat="43.74147000" lon="11.06165000">
        <ele>166.00000</ele>
        <time>2010-01-01T07:28:30Z</time>
      </trkpt>
      <trkpt lat="43.74243000" lon="11.06303000">
        <ele>165.00000</ele>
        <time>2010-01-01T07:29:26Z</time>
      </trkpt>
      <trkpt lat="43.74303000" lon="11.06397000">
        <ele>162.00000</ele>
        <time>2010-01-01T07:30:02Z</time>
      </trkpt>
      <trkpt lat="43.74375000" lon="11.06490000">
        <ele>159.00000</ele>
        <time>2010-01-01T07:30:41Z</time>
      </trkpt>
      <trkpt lat="43.74396000" lon="11.06536000">
        <ele>161.00000</ele>
        <time>2010-01-01T07:30:57Z</time>
      </trkpt>
      <trkpt lat="43.74433000" lon="11.06639000">
        <ele>163.00000</ele>
        <time>2010-01-01T07:31:30Z</time>
      </trkpt>
      <trkpt lat="43.74462670" lon="11.06717520">
        <ele>166.00000</ele>
        <time>2010-01-01T07:31:56Z</time>
      </trkpt>
      <trkpt lat="43.74499490" lon="11.06794770">
        <ele>165.00000</ele>
        <time>2010-01-01T07:32:23Z</time>
      </trkpt>
      <trkpt lat="43.74573000" lon="11.06882000">
        <ele>167.00000</ele>
        <time>2010-01-01T07:33:01Z</time>
      </trkpt>
      <trkpt lat="43.74651000" lon="11.06940000">
        <ele>173.00000</ele>
        <time>2010-01-01T07:33:37Z</time>
      </trkpt>
      <trkpt lat="43.74663000" lon="11.06956000">
        <ele>175.00000</ele>
        <time>2010-01-01T07:33:44Z</time>
      </trkpt>
      <trkpt lat="43.74776000" lon="11.07191000">
        <ele>193.00000</ele>
        <time>2010-01-01T07:35:05Z</time>
      </trkpt>
      <trkpt lat="43.74792000" lon="11.07255000">
        <ele>196.00000</ele>
        <time>2010-01-01T07:35:25Z</time>
      </trkpt>
      <trkpt lat="43.74805000" lon="11.07323000">
        <ele>200.00000</ele>
        <time>2010-01-01T07:35:45Z</time>
      </trkpt>
      <trkpt lat="43.74816000" lon="11.07403000">
        <ele>200.00000</ele>
        <time>2010-01-01T07:36:09Z</time>
      </trkpt>
      <trkpt lat="43.74878490" lon="11.07568860">
        <ele>191.00000</ele>
        <time>2010-01-01T07:37:03Z</time>
      </trkpt>
      <trkpt lat="43.74890500" lon="11.07626250">
        <ele>189.00000</ele>
        <time>2010-01-01T07:37:20Z</time>
      </trkpt>
      <trkpt lat="43.74900960" lon="11.07838150">
        <ele>186.00000</ele>
        <time>2010-01-01T07:38:21Z</time>
      </trkpt>
      <trkpt lat="43.74906000" lon="11.07955000">
        <ele>182.00000</ele>
        <time>2010-01-01T07:38:55Z</time>
      </trkpt>
      <trkpt lat="43.74820360" lon="11.07956170">
        <ele>175.00000</ele>
        <time>2010-01-01T07:39:30Z</time>
      </trkpt>
      <trkpt lat="43.74762620" lon="11.07995330">
        <ele>171.00000</ele>
        <time>2010-01-01T07:39:55Z</time>
      </trkpt>
      <trkpt lat="43.74505690" lon="11.08209370">
        <ele>162.00000</ele>
        <time>2010-01-01T07:41:55Z</time>
      </trkpt>
      <trkpt lat="43.74375470" lon="11.08275890">
        <ele>162.00000</ele>
        <time>2010-01-01T07:42:51Z</time>
      </trkpt>
      <trkpt lat="43.74291760" lon="11.08312360">
        <ele>158.00000</ele>
        <time>2010-01-01T07:43:26Z</time>
      </trkpt>
      <trkpt lat="43.74254560" lon="11.08361720">
        <ele>156.00000</ele>
        <time>2010-01-01T07:43:47Z</time>
      </trkpt>
      <trkpt lat="43.74236340" lon="11.08435210">
        <ele>153.00000</ele>
        <time>2010-01-01T07:44:09Z</time>
      </trkpt>
      <trkpt lat="43.74235570" lon="11.08611160">
        <ele>155.00000</ele>
        <time>2010-01-01T07:45:00Z</time>
      </trkpt>
      <trkpt lat="43.74262690" lon="11.08606870">
        <ele>151.00000</ele>
        <time>2010-01-01T07:45:11Z</time>
      </trkpt>
      <trkpt lat="43.74293310" lon="11.08617060">
        <ele>148.00000</ele>
        <time>2010-01-01T07:45:24Z</time>
      </trkpt>
      <trkpt lat="43.74356870" lon="11.08664270">
        <ele>144.00000</ele>
        <time>2010-01-01T07:45:52Z</time>
      </trkpt>
      <trkpt lat="43.74496390" lon="11.08731860">
        <ele>133.00000</ele>
        <time>2010-01-01T07:46:52Z</time>
      </trkpt>
      <trkpt lat="43.74569240" lon="11.08801600">
        <ele>125.00000</ele>
        <time>2010-01-01T07:47:27Z</time>
      </trkpt>
      <trkpt lat="43.74682400" lon="11.08911030">
        <ele>119.00000</ele>
        <time>2010-01-01T07:48:22Z</time>
      </trkpt>
      <trkpt lat="43.74752160" lon="11.08936780">
        <ele>119.00000</ele>
        <time>2010-01-01T07:48:51Z</time>
      </trkpt>
      <trkpt lat="43.74836250" lon="11.08942680">
        <ele>118.00000</ele>
        <time>2010-01-01T07:49:25Z</time>
      </trkpt>
      <trkpt lat="43.74921000" lon="11.08980000">
        <ele>113.00000</ele>
        <time>2010-01-01T07:50:01Z</time>
      </trkpt>
      <trkpt lat="43.74979000" lon="11.09016000">
        <ele>116.00000</ele>
        <time>2010-01-01T07:50:26Z</time>
      </trkpt>
      <trkpt lat="43.75097000" lon="11.09068000">
        <ele>110.00000</ele>
        <time>2010-01-01T07:51:16Z</time>
      </trkpt>
      <trkpt lat="43.75139000" lon="11.09080000">
        <ele>111.00000</ele>
        <time>2010-01-01T07:51:33Z</time>
      </trkpt>
      <trkpt lat="43.75265000" lon="11.09185000">
        <ele>113.00000</ele>
        <time>2010-01-01T07:52:32Z</time>
      </trkpt>
      <trkpt lat="43.75318000" lon="11.09262000">
        <ele>108.00000</ele>
        <time>2010-01-01T07:53:02Z</time>
      </trkpt>
      <trkpt lat="43.75343000" lon="11.09282000">
        <ele>105.00000</ele>
        <time>2010-01-01T07:53:14Z</time>
      </trkpt>
      <trkpt lat="43.75353000" lon="11.09287000">
        <ele>104.00000</ele>
        <time>2010-01-01T07:53:18Z</time>
      </trkpt>
      <trkpt lat="43.75364000" lon="11.09286000">
        <ele>104.00000</ele>
        <time>2010-01-01T07:53:23Z</time>
      </trkpt>
      <trkpt lat="43.75375000" lon="11.09278000">
        <ele>104.00000</ele>
        <time>2010-01-01T07:53:28Z</time>
      </trkpt>
      <trkpt lat="43.75396000" lon="11.09252000">
        <ele>109.00000</ele>
        <time>2010-01-01T07:53:39Z</time>
      </trkpt>
      <trkpt lat="43.75407000" lon="11.09251000">
        <ele>107.00000</ele>
        <time>2010-01-01T07:53:43Z</time>
      </trkpt>
      <trkpt lat="43.75415000" lon="11.09266000">
        <ele>104.00000</ele>
        <time>2010-01-01T07:53:49Z</time>
      </trkpt>
      <trkpt lat="43.75413000" lon="11.09291000">
        <ele>102.00000</ele>
        <time>2010-01-01T07:53:56Z</time>
      </trkpt>
      <trkpt lat="43.75405000" lon="11.09317000">
        <ele>100.00000</ele>
        <time>2010-01-01T07:54:04Z</time>
      </trkpt>
      <trkpt lat="43.75405000" lon="11.09345000">
        <ele>96.000000</ele>
        <time>2010-01-01T07:54:12Z</time>
      </trkpt>
      <trkpt lat="43.75458000" lon="11.09465000">
        <ele>91.000000</ele>
        <time>2010-01-01T07:54:53Z</time>
      </trkpt>
      <trkpt lat="43.75475000" lon="11.09496000">
        <ele>90.000000</ele>
        <time>2010-01-01T07:55:04Z</time>
      </trkpt>
      <trkpt lat="43.75498860" lon="11.09527940">
        <ele>86.000000</ele>
        <time>2010-01-01T07:55:17Z</time>
      </trkpt>
      <trkpt lat="43.75542000" lon="11.09562000">
        <ele>85.000000</ele>
        <time>2010-01-01T07:55:37Z</time>
      </trkpt>
      <trkpt lat="43.75594000" lon="11.09564000">
        <ele>88.000000</ele>
        <time>2010-01-01T07:55:58Z</time>
      </trkpt>
      <trkpt lat="43.75695000" lon="11.09614000">
        <ele>87.000000</ele>
        <time>2010-01-01T07:56:41Z</time>
      </trkpt>
      <trkpt lat="43.75811000" lon="11.09668000">
        <ele>80.000000</ele>
        <time>2010-01-01T07:57:30Z</time>
      </trkpt>
      <trkpt lat="43.75818000" lon="11.09676000">
        <ele>81.000000</ele>
        <time>2010-01-01T07:57:34Z</time>
      </trkpt>
      <trkpt lat="43.75858000" lon="11.09742000">
        <ele>82.000000</ele>
        <time>2010-01-01T07:57:59Z</time>
      </trkpt>
      <trkpt lat="43.75867000" lon="11.09749000">
        <ele>82.000000</ele>
        <time>2010-01-01T07:58:03Z</time>
      </trkpt>
      <trkpt lat="43.75908000" lon="11.09779000">
        <ele>81.000000</ele>
        <time>2010-01-01T07:58:21Z</time>
      </trkpt>
      <trkpt lat="43.75923000" lon="11.09786000">
        <ele>81.000000</ele>
        <time>2010-01-01T07:58:28Z</time>
      </trkpt>
      <trkpt lat="43.75979000" lon="11.09803000">
        <ele>80.000000</ele>
        <time>2010-01-01T07:58:51Z</time>
      </trkpt>
      <trkpt lat="43.75996000" lon="11.09818000">
        <ele>81.000000</ele>
        <time>2010-01-01T07:58:59Z</time>
      </trkpt>
      <trkpt lat="43.76039000" lon="11.09875000">
        <ele>78.000000</ele>
        <time>2010-01-01T07:59:22Z</time>
      </trkpt>
      <trkpt lat="43.76093000" lon="11.09936000">
        <ele>76.000000</ele>
        <time>2010-01-01T07:59:50Z</time>
      </trkpt>
      <trkpt lat="43.76116000" lon="11.09974000">
        <ele>70.000000</ele>
        <time>2010-01-01T08:00:05Z</time>
      </trkpt>
      <trkpt lat="43.76172000" lon="11.10089000">
        <ele>61.000000</ele>
        <time>2010-01-01T08:00:45Z</time>
      </trkpt>
      <trkpt lat="43.76222000" lon="11.10169000">
        <ele>63.000000</ele>
        <time>2010-01-01T08:01:15Z</time>
      </trkpt>
      <trkpt lat="43.76242000" lon="11.10186000">
        <ele>59.000000</ele>
        <time>2010-01-01T08:01:25Z</time>
      </trkpt>
      <trkpt lat="43.76255000" lon="11.10190000">
        <ele>56.000000</ele>
        <time>2010-01-01T08:01:30Z</time>
      </trkpt>
      <trkpt lat="43.76303000" lon="11.10198000">
        <ele>54.000000</ele>
        <time>2010-01-01T08:01:49Z</time>
      </trkpt>
      <trkpt lat="43.76389000" lon="11.10182000">
        <ele>50.000000</ele>
        <time>2010-01-01T08:02:24Z</time>
      </trkpt>
      <trkpt lat="43.76403000" lon="11.10181000">
        <ele>49.000000</ele>
        <time>2010-01-01T08:02:30Z</time>
      </trkpt>
      <trkpt lat="43.76419000" lon="11.10183000">
        <ele>47.000000</ele>
        <time>2010-01-01T08:02:36Z</time>
      </trkpt>
      <trkpt lat="43.76485000" lon="11.10206000">
        <ele>47.000000</ele>
        <time>2010-01-01T08:03:03Z</time>
      </trkpt>
      <trkpt lat="43.76554000" lon="11.10234000">
        <ele>45.000000</ele>
        <time>2010-01-01T08:03:32Z</time>
      </trkpt>
      <trkpt lat="43.76625000" lon="11.10276000">
        <ele>45.000000</ele>
        <time>2010-01-01T08:04:03Z</time>
      </trkpt>
      <trkpt lat="43.76643000" lon="11.10282000">
        <ele>44.000000</ele>
        <time>2010-01-01T08:04:11Z</time>
      </trkpt>
      <trkpt lat="43.76661000" lon="11.10285000">
        <ele>43.000000</ele>
        <time>2010-01-01T08:04:18Z</time>
      </trkpt>
      <trkpt lat="43.76687900" lon="11.10288080">
        <ele>43.000000</ele>
        <time>2010-01-01T08:04:29Z</time>
      </trkpt>
      <trkpt lat="43.76725000" lon="11.10275000">
        <ele>41.000000</ele>
        <time>2010-01-01T08:04:44Z</time>
      </trkpt>
      <trkpt lat="43.76800000" lon="11.10243000">
        <ele>42.000000</ele>
        <time>2010-01-01T08:05:15Z</time>
      </trkpt>
      <trkpt lat="43.76832000" lon="11.10239000">
        <ele>44.000000</ele>
        <time>2010-01-01T08:05:28Z</time>
      </trkpt>
      <trkpt lat="43.76849000" lon="11.10240000">
        <ele>43.000000</ele>
        <time>2010-01-01T08:05:35Z</time>
      </trkpt>
      <trkpt lat="43.76868000" lon="11.10244000">
        <ele>41.000000</ele>
        <time>2010-01-01T08:05:43Z</time>
      </trkpt>
      <trkpt lat="43.76885000" lon="11.10251000">
        <ele>39.000000</ele>
        <time>2010-01-01T08:05:50Z</time>
      </trkpt>
      <trkpt lat="43.76922000" lon="11.10273000">
        <ele>37.000000</ele>
        <time>2010-01-01T08:06:06Z</time>
      </trkpt>
      <trkpt lat="43.77015000" lon="11.10338000">
        <ele>38.000000</ele>
        <time>2010-01-01T08:06:48Z</time>
      </trkpt>
      <trkpt lat="43.77014000" lon="11.10338000">
        <ele>38.000000</ele>
        <time>2010-01-01T08:06:48Z</time>
      </trkpt>
      <trkpt lat="43.77015000" lon="11.10338000">
        <ele>38.000000</ele>
        <time>2010-01-01T08:06:48Z</time>
      </trkpt>
      <trkpt lat="43.77065000" lon="11.10043000">
        <ele>45.000000</ele>
        <time>2010-01-01T08:08:16Z</time>
      </trkpt>
      <trkpt lat="43.77098000" lon="11.09857000">
        <ele>43.000000</ele>
        <time>2010-01-01T08:09:11Z</time>
      </trkpt>
      <trkpt lat="43.77138000" lon="11.09599000">
        <ele>42.000000</ele>
        <time>2010-01-01T08:10:28Z</time>
      </trkpt>
      <trkpt lat="43.77155000" lon="11.09605000">
        <ele>42.000000</ele>
        <time>2010-01-01T08:10:35Z</time>
      </trkpt>
      <trkpt lat="43.77181000" lon="11.09609000">
        <ele>41.000000</ele>
        <time>2010-01-01T08:10:45Z</time>
      </trkpt>
      <trkpt lat="43.77230000" lon="11.09610000">
        <ele>37.000000</ele>
        <time>2010-01-01T08:11:05Z</time>
      </trkpt>
      <trkpt lat="43.77361000" lon="11.09606000">
        <ele>38.000000</ele>
        <time>2010-01-01T08:11:57Z</time>
      </trkpt>
      <trkpt lat="43.77366000" lon="11.09595000">
        <ele>38.000000</ele>
        <time>2010-01-01T08:12:01Z</time>
      </trkpt>
      <trkpt lat="43.77370000" lon="11.09501000">
        <ele>36.000000</ele>
        <time>2010-01-01T08:12:28Z</time>
      </trkpt>
      <trkpt lat="43.77528000" lon="11.09515000">
        <ele>40.000000</ele>
        <time>2010-01-01T08:13:32Z</time>
      </trkpt>
      <trkpt lat="43.77544000" lon="11.09406000">
        <ele>38.000000</ele>
        <time>2010-01-01T08:14:04Z</time>
      </trkpt>
      <trkpt lat="43.77542000" lon="11.09391000">
        <ele>38.000000</ele>
        <time>2010-01-01T08:14:08Z</time>
      </trkpt>
      <trkpt lat="43.77535080" lon="11.09378270">
        <ele>38.000000</ele>
        <time>2010-01-01T08:14:13Z</time>
      </trkpt>
      <trkpt lat="43.77517000" lon="11.09369000">
        <ele>38.000000</ele>
        <time>2010-01-01T08:14:20Z</time>
      </trkpt>
      <trkpt lat="43.77523000" lon="11.09305000">
        <ele>40.000000</ele>
        <time>2010-01-01T08:14:39Z</time>
      </trkpt>
      <trkpt lat="43.77539000" lon="11.09309000">
        <ele>39.000000</ele>
        <time>2010-01-01T08:14:46Z</time>
      </trkpt>
      <trkpt lat="43.77566460" lon="11.09306930">
        <ele>39.000000</ele>
        <time>2010-01-01T08:14:57Z</time>
      </trkpt>
      <trkpt lat="43.77599000" lon="11.09304000">
        <ele>42.000000</ele>
        <time>2010-01-01T08:15:10Z</time>
      </trkpt>
      <trkpt lat="43.77617000" lon="11.09305000">
        <ele>45.000000</ele>
        <time>2010-01-01T08:15:17Z</time>
      </trkpt>
      <trkpt lat="43.77638000" lon="11.09405000">
        <ele>50.000000</ele>
        <time>2010-01-01T08:15:47Z</time>
      </trkpt>
      <trkpt lat="43.77660000" lon="11.09493000">
        <ele>50.000000</ele>
        <time>2010-01-01T08:16:14Z</time>
      </trkpt>
      <trkpt lat="43.77677000" lon="11.09544000">
        <ele>48.000000</ele>
        <time>2010-01-01T08:16:30Z</time>
      </trkpt>
      <trkpt lat="43.77700000" lon="11.09593000">
        <ele>44.000000</ele>
        <time>2010-01-01T08:16:47Z</time>
      </trkpt>
      <trkpt lat="43.77754000" lon="11.09674000">
        <ele>43.000000</ele>
        <time>2010-01-01T08:17:19Z</time>
      </trkpt>
      <trkpt lat="43.77793000" lon="11.09742000">
        <ele>40.000000</ele>
        <time>2010-01-01T08:17:44Z</time>
      </trkpt>
      <trkpt lat="43.77806000" lon="11.09755000">
        <ele>39.000000</ele>
        <time>2010-01-01T08:17:50Z</time>
      </trkpt>
      <trkpt lat="43.77839910" lon="11.09777390">
        <ele>38.000000</ele>
        <time>2010-01-01T08:18:05Z</time>
      </trkpt>
      <trkpt lat="43.77787000" lon="11.09987000">
        <ele>37.000000</ele>
        <time>2010-01-01T08:19:10Z</time>
      </trkpt>
      <trkpt lat="43.77880000" lon="11.10023000">
        <ele>36.000000</ele>
        <time>2010-01-01T08:19:48Z</time>
      </trkpt>
      <trkpt lat="43.77909000" lon="11.10039000">
        <ele>36.000000</ele>
        <time>2010-01-01T08:20:01Z</time>
      </trkpt>
      <trkpt lat="43.77950000" lon="11.10054000">
        <ele>38.000000</ele>
        <time>2010-01-01T08:20:18Z</time>
      </trkpt>
      <trkpt lat="43.77982000" lon="11.10061000">
        <ele>37.000000</ele>
        <time>2010-01-01T08:20:31Z</time>
      </trkpt>
      <trkpt lat="43.78008000" lon="11.10063000">
        <ele>36.000000</ele>
        <time>2010-01-01T08:20:41Z</time>
      </trkpt>
      <trkpt lat="43.78055000" lon="11.10064000">
        <ele>36.000000</ele>
        <time>2010-01-01T08:21:00Z</time>
      </trkpt>
      <trkpt lat="43.78104000" lon="11.10062000">
        <ele>36.000000</ele>
        <time>2010-01-01T08:21:20Z</time>
      </trkpt>
      <trkpt lat="43.78161000" lon="11.10054000">
        <ele>36.000000</ele>
        <time>2010-01-01T08:21:43Z</time>
      </trkpt>
      <trkpt lat="43.78407000" lon="11.09997000">
        <ele>36.000000</ele>
        <time>2010-01-01T08:23:22Z</time>
      </trkpt>
      <trkpt lat="43.78448000" lon="11.09993000">
        <ele>36.000000</ele>
        <time>2010-01-01T08:23:39Z</time>
      </trkpt>
      <trkpt lat="43.78482000" lon="11.09995000">
        <ele>35.000000</ele>
        <time>2010-01-01T08:23:52Z</time>
      </trkpt>
      <trkpt lat="43.78502000" lon="11.09998000">
        <ele>36.000000</ele>
        <time>2010-01-01T08:24:00Z</time>
      </trkpt>
      <trkpt lat="43.78552540" lon="11.10013960">
        <ele>36.000000</ele>
        <time>2010-01-01T08:24:21Z</time>
      </trkpt>
      <trkpt lat="43.78561000" lon="11.10025000">
        <ele>37.000000</ele>
        <time>2010-01-01T08:24:26Z</time>
      </trkpt>
      <trkpt lat="43.78562000" lon="11.10048000">
        <ele>36.000000</ele>
        <time>2010-01-01T08:24:33Z</time>
      </trkpt>
      <trkpt lat="43.78566000" lon="11.10065000">
        <ele>35.000000</ele>
        <time>2010-01-01T08:24:38Z</time>
      </trkpt>
      <trkpt lat="43.78582000" lon="11.10115000">
        <ele>35.000000</ele>
        <time>2010-01-01T08:24:54Z</time>
      </trkpt>
      <trkpt lat="43.78605000" lon="11.10176000">
        <ele>35.000000</ele>
        <time>2010-01-01T08:25:13Z</time>
      </trkpt>
      <trkpt lat="43.78616000" lon="11.10199000">
        <ele>34.000000</ele>
        <time>2010-01-01T08:25:21Z</time>
      </trkpt>
      <trkpt lat="43.78627000" lon="11.10212000">
        <ele>34.000000</ele>
        <time>2010-01-01T08:25:27Z</time>
      </trkpt>
      <trkpt lat="43.78713000" lon="11.10301000">
        <ele>37.000000</ele>
        <time>2010-01-01T08:26:10Z</time>
      </trkpt>
      <trkpt lat="43.78863000" lon="11.10460000">
        <ele>36.000000</ele>
        <time>2010-01-01T08:27:26Z</time>
      </trkpt>
      <trkpt lat="43.78977000" lon="11.10610000">
        <ele>37.000000</ele>
        <time>2010-01-01T08:28:29Z</time>
      </trkpt>
      <trkpt lat="43.79036000" lon="11.10702000">
        <ele>36.000000</ele>
        <time>2010-01-01T08:29:04Z</time>
      </trkpt>
      <trkpt lat="43.79095000" lon="11.10806000">
        <ele>38.000000</ele>
        <time>2010-01-01T08:29:42Z</time>
      </trkpt>
      <trkpt lat="43.79137000" lon="11.10884000">
        <ele>36.000000</ele>
        <time>2010-01-01T08:30:11Z</time>
      </trkpt>
      <trkpt lat="43.79164000" lon="11.10953000">
        <ele>35.000000</ele>
        <time>2010-01-01T08:30:33Z</time>
      </trkpt>
      <trkpt lat="43.79174000" lon="11.10994000">
        <ele>37.000000</ele>
        <time>2010-01-01T08:30:46Z</time>
      </trkpt>
      <trkpt lat="43.79179000" lon="11.11036000">
        <ele>37.000000</ele>
        <time>2010-01-01T08:30:58Z</time>
      </trkpt>
      <trkpt lat="43.79175000" lon="11.11090000">
        <ele>38.000000</ele>
        <time>2010-01-01T08:31:14Z</time>
      </trkpt>
      <trkpt lat="43.79157000" lon="11.11201000">
        <ele>36.000000</ele>
        <time>2010-01-01T08:31:47Z</time>
      </trkpt>
      <trkpt lat="43.79139000" lon="11.11265000">
        <ele>35.000000</ele>
        <time>2010-01-01T08:32:06Z</time>
      </trkpt>
      <trkpt lat="43.79136000" lon="11.11308000">
        <ele>35.000000</ele>
        <time>2010-01-01T08:32:19Z</time>
      </trkpt>
      <trkpt lat="43.79136530" lon="11.11338430">
        <ele>35.000000</ele>
        <time>2010-01-01T08:32:28Z</time>
      </trkpt>
      <trkpt lat="43.79142000" lon="11.11378000">
        <ele>34.000000</ele>
        <time>2010-01-01T08:32:39Z</time>
      </trkpt>
      <trkpt lat="43.79154000" lon="11.11446000">
        <ele>34.000000</ele>
        <time>2010-01-01T08:33:00Z</time>
      </trkpt>
      <trkpt lat="43.79175000" lon="11.11576000">
        <ele>35.000000</ele>
        <time>2010-01-01T08:33:38Z</time>
      </trkpt>
      <trkpt lat="43.79186000" lon="11.11644000">
        <ele>33.000000</ele>
        <time>2010-01-01T08:33:58Z</time>
      </trkpt>
      <trkpt lat="43.79194000" lon="11.11703000">
        <ele>34.000000</ele>
        <time>2010-01-01T08:34:16Z</time>
      </trkpt>
      <trkpt lat="43.79197000" lon="11.11743000">
        <ele>35.000000</ele>
        <time>2010-01-01T08:34:27Z</time>
      </trkpt>
      <trkpt lat="43.79196000" lon="11.11784000">
        <ele>39.000000</ele>
        <time>2010-01-01T08:34:39Z</time>
      </trkpt>
      <trkpt lat="43.79184000" lon="11.11929000">
        <ele>35.000000</ele>
        <time>2010-01-01T08:35:21Z</time>
      </trkpt>
      <trkpt lat="43.79186000" lon="11.11957000">
        <ele>36.000000</ele>
        <time>2010-01-01T08:35:29Z</time>
      </trkpt>
      <trkpt lat="43.79196160" lon="11.12046000">
        <ele>38.000000</ele>
        <time>2010-01-01T08:35:55Z</time>
      </trkpt>
      <trkpt lat="43.79197000" lon="11.12149000">
        <ele>35.000000</ele>
        <time>2010-01-01T08:36:25Z</time>
      </trkpt>
      <trkpt lat="43.79203000" lon="11.12233000">
        <ele>34.000000</ele>
        <time>2010-01-01T08:36:50Z</time>
      </trkpt>
      <trkpt lat="43.79200000" lon="11.12276000">
        <ele>34.000000</ele>
        <time>2010-01-01T08:37:02Z</time>
      </trkpt>
      <trkpt lat="43.79190000" lon="11.12332000">
        <ele>35.000000</ele>
        <time>2010-01-01T08:37:19Z</time>
      </trkpt>
      <trkpt lat="43.79175000" lon="11.12373000">
        <ele>35.000000</ele>
        <time>2010-01-01T08:37:32Z</time>
      </trkpt>
      <trkpt lat="43.79159000" lon="11.12407000">
        <ele>34.000000</ele>
        <time>2010-01-01T08:37:44Z</time>
      </trkpt>
      <trkpt lat="43.79150000" lon="11.12431000">
        <ele>34.000000</ele>
        <time>2010-01-01T08:37:52Z</time>
      </trkpt>
      <trkpt lat="43.79142000" lon="11.12485000">
        <ele>34.000000</ele>
        <time>2010-01-01T08:38:07Z</time>
      </trkpt>
      <trkpt lat="43.79141000" lon="11.12514000">
        <ele>34.000000</ele>
        <time>2010-01-01T08:38:16Z</time>
      </trkpt>
      <trkpt lat="43.79145000" lon="11.12594000">
        <ele>35.000000</ele>
        <time>2010-01-01T08:38:39Z</time>
      </trkpt>
      <trkpt lat="43.79171760" lon="11.12769120">
        <ele>37.000000</ele>
        <time>2010-01-01T08:39:31Z</time>
      </trkpt>
      <trkpt lat="43.79169000" lon="11.12798000">
        <ele>37.000000</ele>
        <time>2010-01-01T08:39:39Z</time>
      </trkpt>
      <trkpt lat="43.79128000" lon="11.12803000">
        <ele>37.000000</ele>
        <time>2010-01-01T08:39:56Z</time>
      </trkpt>
      <trkpt lat="43.79109000" lon="11.12809000">
        <ele>38.000000</ele>
        <time>2010-01-01T08:40:03Z</time>
      </trkpt>
      <trkpt lat="43.79007000" lon="11.12891000">
        <ele>38.000000</ele>
        <time>2010-01-01T08:40:51Z</time>
      </trkpt>
      <trkpt lat="43.79029000" lon="11.12942000">
        <ele>38.000000</ele>
        <time>2010-01-01T08:41:08Z</time>
      </trkpt>
      <trkpt lat="43.79054000" lon="11.12981000">
        <ele>37.000000</ele>
        <time>2010-01-01T08:41:23Z</time>
      </trkpt>
      <trkpt lat="43.79056000" lon="11.13032000">
        <ele>38.000000</ele>
        <time>2010-01-01T08:41:38Z</time>
      </trkpt>
      <trkpt lat="43.79061400" lon="11.13062020">
        <ele>39.000000</ele>
        <time>2010-01-01T08:41:47Z</time>
      </trkpt>
      <trkpt lat="43.79076000" lon="11.13106000">
        <ele>39.000000</ele>
        <time>2010-01-01T08:42:01Z</time>
      </trkpt>
      <trkpt lat="43.78563390" lon="11.14159040">
        <ele>40.000000</ele>
        <time>2010-01-01T08:48:08Z</time>
      </trkpt>
      <trkpt lat="43.78578100" lon="11.14235750">
        <ele>39.000000</ele>
        <time>2010-01-01T08:48:31Z</time>
      </trkpt>
      <trkpt lat="43.78938260" lon="11.14496460">
        <ele>38.000000</ele>
        <time>2010-01-01T08:51:13Z</time>
      </trkpt>
      <trkpt lat="43.78776380" lon="11.15404120">
        <ele>35.000000</ele>
        <time>2010-01-01T08:55:43Z</time>
      </trkpt>
      <trkpt lat="43.78775610" lon="11.15462060">
        <ele>35.000000</ele>
        <time>2010-01-01T08:56:00Z</time>
      </trkpt>
      <trkpt lat="43.78788780" lon="11.15500680">
        <ele>34.000000</ele>
        <time>2010-01-01T08:56:13Z</time>
      </trkpt>
      <trkpt lat="43.78877070" lon="11.15612800">
        <ele>36.000000</ele>
        <time>2010-01-01T08:57:00Z</time>
      </trkpt>
      <trkpt lat="43.78889460" lon="11.15751740">
        <ele>37.000000</ele>
        <time>2010-01-01T08:57:41Z</time>
      </trkpt>
      <trkpt lat="43.78855380" lon="11.15786070">
        <ele>38.000000</ele>
        <time>2010-01-01T08:57:58Z</time>
      </trkpt>
      <trkpt lat="43.78854610" lon="11.15824160">
        <ele>39.000000</ele>
        <time>2010-01-01T08:58:09Z</time>
      </trkpt>
      <trkpt lat="43.78862740" lon="11.15852590">
        <ele>39.000000</ele>
        <time>2010-01-01T08:58:18Z</time>
      </trkpt>
      <trkpt lat="43.78897210" lon="11.15886920">
        <ele>36.000000</ele>
        <time>2010-01-01T08:58:35Z</time>
      </trkpt>
      <trkpt lat="43.78907660" lon="11.15919640">
        <ele>35.000000</ele>
        <time>2010-01-01T08:58:45Z</time>
      </trkpt>
      <trkpt lat="43.78966910" lon="11.16479150">
        <ele>39.000000</ele>
        <time>2010-01-01T09:01:28Z</time>
      </trkpt>
      <trkpt lat="43.79018030" lon="11.17343900">
        <ele>39.000000</ele>
        <time>2010-01-01T09:05:39Z</time>
      </trkpt>
      <trkpt lat="43.79171380" lon="11.17345510">
        <ele>39.000000</ele>
        <time>2010-01-01T09:06:40Z</time>
      </trkpt>
      <trkpt lat="43.79228690" lon="11.17333170">
        <ele>38.000000</ele>
        <time>2010-01-01T09:07:04Z</time>
      </trkpt>
      <trkpt lat="43.79319300" lon="11.17339610">
        <ele>39.000000</ele>
        <time>2010-01-01T09:07:40Z</time>
      </trkpt>
      <trkpt lat="43.79363440" lon="11.18062730">
        <ele>40.000000</ele>
        <time>2010-01-01T09:11:10Z</time>
      </trkpt>
      <trkpt lat="43.79440890" lon="11.19313710">
        <ele>39.000000</ele>
        <time>2010-01-01T09:17:13Z</time>
      </trkpt>
      <trkpt lat="43.79354150" lon="11.19554040">
        <ele>38.000000</ele>
        <time>2010-01-01T09:18:30Z</time>
      </trkpt>
      <trkpt lat="43.79275160" lon="11.19511120">
        <ele>39.000000</ele>
        <time>2010-01-01T09:19:04Z</time>
      </trkpt>
      <trkpt lat="43.79261220" lon="11.19471430">
        <ele>39.000000</ele>
        <time>2010-01-01T09:19:17Z</time>
      </trkpt>
      <trkpt lat="43.79209330" lon="11.19458550">
        <ele>41.000000</ele>
        <time>2010-01-01T09:19:38Z</time>
      </trkpt>
      <trkpt lat="43.79144270" lon="11.19464990">
        <ele>41.000000</ele>
        <time>2010-01-01T09:20:04Z</time>
      </trkpt>
      <trkpt lat="43.79112520" lon="11.19459620">
        <ele>40.000000</ele>
        <time>2010-01-01T09:20:17Z</time>
      </trkpt>
      <trkpt lat="43.79107100" lon="11.19853910">
        <ele>39.000000</ele>
        <time>2010-01-01T09:22:11Z</time>
      </trkpt>
      <trkpt lat="43.79057140" lon="11.19853910">
        <ele>43.000000</ele>
        <time>2010-01-01T09:22:31Z</time>
      </trkpt>
      <trkpt lat="43.79055980" lon="11.19875900">
        <ele>45.000000</ele>
        <time>2010-01-01T09:22:37Z</time>
      </trkpt>
      <trkpt lat="43.79047460" lon="11.19874830">
        <ele>46.000000</ele>
        <time>2010-01-01T09:22:41Z</time>
      </trkpt>
      <trkpt lat="43.79035070" lon="11.19851230">
        <ele>45.000000</ele>
        <time>2010-01-01T09:22:49Z</time>
      </trkpt>
      <trkpt lat="43.79014160" lon="11.19849080">
        <ele>46.000000</ele>
        <time>2010-01-01T09:22:57Z</time>
      </trkpt>
      <trkpt lat="43.79000990" lon="11.19863030">
        <ele>48.000000</ele>
        <time>2010-01-01T09:23:04Z</time>
      </trkpt>
      <trkpt lat="43.78655560" lon="11.20564690">
        <ele>44.000000</ele>
        <time>2010-01-01T09:27:10Z</time>
      </trkpt>
      <trkpt lat="43.78054000" lon="11.21905000">
        <ele>45.000000</ele>
        <time>2010-01-01T09:34:46Z</time>
      </trkpt>
      <trkpt lat="43.77891000" lon="11.22333000">
        <ele>46.000000</ele>
        <time>2010-01-01T09:37:05Z</time>
      </trkpt>
      <trkpt lat="43.77850000" lon="11.22443000">
        <ele>47.000000</ele>
        <time>2010-01-01T09:37:41Z</time>
      </trkpt>
      <trkpt lat="43.77823000" lon="11.22524000">
        <ele>48.000000</ele>
        <time>2010-01-01T09:38:07Z</time>
      </trkpt>
      <trkpt lat="43.77737000" lon="11.22827000">
        <ele>51.000000</ele>
        <time>2010-01-01T09:39:41Z</time>
      </trkpt>
      <trkpt lat="43.77599000" lon="11.23321000">
        <ele>44.000000</ele>
        <time>2010-01-01T09:42:14Z</time>
      </trkpt>
      <trkpt lat="43.77561000" lon="11.23447000">
        <ele>42.000000</ele>
        <time>2010-01-01T09:42:54Z</time>
      </trkpt>
      <trkpt lat="43.77556000" lon="11.23463000">
        <ele>42.000000</ele>
        <time>2010-01-01T09:42:59Z</time>
      </trkpt>
      <trkpt lat="43.77553000" lon="11.23484000">
        <ele>42.000000</ele>
        <time>2010-01-01T09:43:05Z</time>
      </trkpt>
      <trkpt lat="43.77564000" lon="11.23516000">
        <ele>45.000000</ele>
        <time>2010-01-01T09:43:15Z</time>
      </trkpt>
      <trkpt lat="43.77591000" lon="11.23534000">
        <ele>47.000000</ele>
        <time>2010-01-01T09:43:27Z</time>
      </trkpt>
      <trkpt lat="43.77603000" lon="11.23550000">
        <ele>47.000000</ele>
        <time>2010-01-01T09:43:34Z</time>
      </trkpt>
      <trkpt lat="43.77581000" lon="11.23617000">
        <ele>46.000000</ele>
        <time>2010-01-01T09:43:55Z</time>
      </trkpt>
      <trkpt lat="43.77583000" lon="11.23623000">
        <ele>46.000000</ele>
        <time>2010-01-01T09:43:57Z</time>
      </trkpt>
      <trkpt lat="43.77579000" lon="11.23642000">
        <ele>46.000000</ele>
        <time>2010-01-01T09:44:03Z</time>
      </trkpt>
      <trkpt lat="43.77569000" lon="11.23673000">
        <ele>50.000000</ele>
        <time>2010-01-01T09:44:13Z</time>
      </trkpt>
      <trkpt lat="43.77561000" lon="11.23674000">
        <ele>50.000000</ele>
        <time>2010-01-01T09:44:16Z</time>
      </trkpt>
      <trkpt lat="43.77555000" lon="11.23685000">
        <ele>52.000000</ele>
        <time>2010-01-01T09:44:20Z</time>
      </trkpt>
      <trkpt lat="43.77500000" lon="11.23639000">
        <ele>47.000000</ele>
        <time>2010-01-01T09:44:45Z</time>
      </trkpt>
      <trkpt lat="43.77441000" lon="11.23826000">
        <ele>47.000000</ele>
        <time>2010-01-01T09:45:44Z</time>
      </trkpt>
      <trkpt lat="43.77438000" lon="11.23823000">
        <ele>47.000000</ele>
        <time>2010-01-01T09:45:46Z</time>
      </trkpt>
      <trkpt lat="43.77393000" lon="11.23971000">
        <ele>51.000000</ele>
        <time>2010-01-01T09:46:32Z</time>
      </trkpt>
      <trkpt lat="43.77305000" lon="11.24228000">
        <ele>51.000000</ele>
        <time>2010-01-01T09:47:55Z</time>
      </trkpt>
      <trkpt lat="43.77270000" lon="11.24324000">
        <ele>49.000000</ele>
        <time>2010-01-01T09:48:26Z</time>
      </trkpt>
      <trkpt lat="43.77197000" lon="11.24498000">
        <ele>52.000000</ele>
        <time>2010-01-01T09:49:24Z</time>
      </trkpt>
      <trkpt lat="43.77075000" lon="11.24777000">
        <ele>52.000000</ele>
        <time>2010-01-01T09:50:58Z</time>
      </trkpt>
      <trkpt lat="43.76947450" lon="11.25061150">
        <ele>51.000000</ele>
        <time>2010-01-01T09:52:35Z</time>
      </trkpt>
      <trkpt lat="43.77033000" lon="11.25134000">
        <ele>62.000000</ele>
        <time>2010-01-01T09:53:15Z</time>
      </trkpt>
      <trkpt lat="43.77105000" lon="11.25138000">
        <ele>65.000000</ele>
        <time>2010-01-01T09:53:44Z</time>
      </trkpt>
      <trkpt lat="43.77149000" lon="11.25136000">
        <ele>65.000000</ele>
        <time>2010-01-01T09:54:02Z</time>
      </trkpt>
      <trkpt lat="43.77149000" lon="11.25277000">
        <ele>65.000000</ele>
        <time>2010-01-01T09:54:42Z</time>
      </trkpt>
      <trkpt lat="43.77148000" lon="11.25356000">
        <ele>70.000000</ele>
        <time>2010-01-01T09:55:05Z</time>
      </trkpt>
      <trkpt lat="43.77148000" lon="11.25357000">
        <ele>70.000000</ele>
        <time>2010-01-01T09:55:05Z</time>
      </trkpt>
      <trkpt lat="43.77274000" lon="11.25360000">
        <ele>63.000000</ele>
        <time>2010-01-01T09:55:56Z</time>
      </trkpt>
      <trkpt lat="43.77283690" lon="11.25533750">
        <ele>58.000000</ele>
        <time>2010-01-01T09:56:46Z</time>
      </trkpt>
      <trkpt lat="43.77254000" lon="11.25783000">
        <ele>64.000000</ele>
        <time>2010-01-01T09:57:59Z</time>
      </trkpt>
      <trkpt lat="43.77131840" lon="11.25793390">
        <ele>67.000000</ele>
        <time>2010-01-01T09:58:48Z</time>
      </trkpt>
      <trkpt lat="43.77090000" lon="11.25789000">
        <ele>71.000000</ele>
        <time>2010-01-01T09:59:05Z</time>
      </trkpt>
      <trkpt lat="43.77028800" lon="11.25776230">
        <ele>73.000000</ele>
        <time>2010-01-01T09:59:30Z</time>
      </trkpt>
      <trkpt lat="43.76998000" lon="11.25765000">
        <ele>64.000000</ele>
        <time>2010-01-01T09:59:43Z</time>
      </trkpt>
      <trkpt lat="43.77007000" lon="11.25744000">
        <ele>64.000000</ele>
        <time>2010-01-01T09:59:50Z</time>
      </trkpt>
      <trkpt lat="43.77016000" lon="11.25704000">
        <ele>63.000000</ele>
        <time>2010-01-01T10:00:02Z</time>
      </trkpt>
      <trkpt lat="43.77019000" lon="11.25684000">
        <ele>63.000000</ele>
        <time>2010-01-01T10:00:08Z</time>
      </trkpt>
      <trkpt lat="43.77021000" lon="11.25641000">
        <ele>63.000000</ele>
        <time>2010-01-01T10:00:20Z</time>
      </trkpt>
      <trkpt lat="43.77020000" lon="11.25609000">
        <ele>61.000000</ele>
        <time>2010-01-01T10:00:29Z</time>
      </trkpt>
      <trkpt lat="43.76988130" lon="11.25609390">
        <ele>59.000000</ele>
        <time>2010-01-01T10:00:42Z</time>
      </trkpt>
      <trkpt lat="43.76942030" lon="11.25580960">
        <ele>64.000000</ele>
        <time>2010-01-01T10:01:02Z</time>
      </trkpt>
      <trkpt lat="43.76945130" lon="11.25516050">
        <ele>62.000000</ele>
        <time>2010-01-01T10:01:21Z</time>
      </trkpt>
      <trkpt lat="43.76961000" lon="11.25437000">
        <ele>58.000000</ele>
        <time>2010-01-01T10:01:45Z</time>
      </trkpt>
      <trkpt lat="43.76847000" lon="11.25348000">
        <ele>49.000000</ele>
        <time>2010-01-01T10:02:37Z</time>
      </trkpt>
      <trkpt lat="43.76740000" lon="11.25269000">
        <ele>62.000000</ele>
        <time>2010-01-01T10:03:26Z</time>
      </trkpt>
      <trkpt lat="43.76739000" lon="11.25269000">
        <ele>62.000000</ele>
        <time>2010-01-01T10:03:26Z</time>
      </trkpt>
      <trkpt lat="43.76700000" lon="11.25412000">
        <ele>61.000000</ele>
        <time>2010-01-01T10:04:10Z</time>
      </trkpt>
      <trkpt lat="43.76699000" lon="11.25422000">
        <ele>61.000000</ele>
        <time>2010-01-01T10:04:13Z</time>
      </trkpt>
      <trkpt lat="43.76658000" lon="11.25544000">
        <ele>61.000000</ele>
        <time>2010-01-01T10:04:52Z</time>
      </trkpt>
      <trkpt lat="43.76548000" lon="11.25839000">
        <ele>50.000000</ele>
        <time>2010-01-01T10:06:28Z</time>
      </trkpt>
      <trkpt lat="43.76525000" lon="11.26077000">
        <ele>50.000000</ele>
        <time>2010-01-01T10:07:38Z</time>
      </trkpt>
      <trkpt lat="43.76502000" lon="11.26318000">
        <ele>50.000000</ele>
        <time>2010-01-01T10:08:48Z</time>
      </trkpt>
      <trkpt lat="43.76479000" lon="11.26551000">
        <ele>53.000000</ele>
        <time>2010-01-01T10:09:56Z</time>
      </trkpt>
      <trkpt lat="43.76462000" lon="11.26733000">
        <ele>56.000000</ele>
        <time>2010-01-01T10:10:49Z</time>
      </trkpt>
      <trkpt lat="43.76452360" lon="11.26835700">
        <ele>54.000000</ele>
        <time>2010-01-01T10:11:19Z</time>
      </trkpt>
      <trkpt lat="43.76436000" lon="11.26944000">
        <ele>50.000000</ele>
        <time>2010-01-01T10:11:51Z</time>
      </trkpt>
      <trkpt lat="43.76396000" lon="11.27036000">
        <ele>52.000000</ele>
        <time>2010-01-01T10:12:22Z</time>
      </trkpt>
      <trkpt lat="43.76374000" lon="11.27073000">
        <ele>52.000000</ele>
        <time>2010-01-01T10:12:36Z</time>
      </trkpt>
      <trkpt lat="43.76355000" lon="11.27121000">
        <ele>51.000000</ele>
        <time>2010-01-01T10:12:52Z</time>
      </trkpt>
      <trkpt lat="43.76351250" lon="11.27145760">
        <ele>52.000000</ele>
        <time>2010-01-01T10:12:59Z</time>
      </trkpt>
      <trkpt lat="43.76353180" lon="11.27167760">
        <ele>52.000000</ele>
        <time>2010-01-01T10:13:05Z</time>
      </trkpt>
      <trkpt lat="43.76354000" lon="11.27212000">
        <ele>52.000000</ele>
        <time>2010-01-01T10:13:18Z</time>
      </trkpt>
      <trkpt lat="43.76327000" lon="11.27420000">
        <ele>54.000000</ele>
        <time>2010-01-01T10:14:19Z</time>
      </trkpt>
      <trkpt lat="43.76322580" lon="11.27525030">
        <ele>53.000000</ele>
        <time>2010-01-01T10:14:50Z</time>
      </trkpt>
      <trkpt lat="43.76321800" lon="11.27853870">
        <ele>51.000000</ele>
        <time>2010-01-01T10:16:25Z</time>
      </trkpt>
      <trkpt lat="43.76255170" lon="11.27873180">
        <ele>51.000000</ele>
        <time>2010-01-01T10:16:52Z</time>
      </trkpt>
      <trkpt lat="43.76233000" lon="11.27921000">
        <ele>53.000000</ele>
        <time>2010-01-01T10:17:08Z</time>
      </trkpt>
      <trkpt lat="43.76167610" lon="11.27974560">
        <ele>55.000000</ele>
        <time>2010-01-01T10:17:39Z</time>
      </trkpt>
      <trkpt lat="43.76044000" lon="11.28123000">
        <ele>56.000000</ele>
        <time>2010-01-01T10:18:44Z</time>
      </trkpt>
      <trkpt lat="43.75897000" lon="11.28320000">
        <ele>54.000000</ele>
        <time>2010-01-01T10:20:06Z</time>
      </trkpt>
      <trkpt lat="43.75863000" lon="11.28369000">
        <ele>54.000000</ele>
        <time>2010-01-01T10:20:26Z</time>
      </trkpt>
      <trkpt lat="43.75776680" lon="11.28561430">
        <ele>53.000000</ele>
        <time>2010-01-01T10:21:31Z</time>
      </trkpt>
      <trkpt lat="43.75748780" lon="11.28580210">
        <ele>54.000000</ele>
        <time>2010-01-01T10:21:44Z</time>
      </trkpt>
      <trkpt lat="43.75722000" lon="11.28612000">
        <ele>53.000000</ele>
        <time>2010-01-01T10:21:58Z</time>
      </trkpt>
      <trkpt lat="43.75708000" lon="11.28633000">
        <ele>53.000000</ele>
        <time>2010-01-01T10:22:06Z</time>
      </trkpt>
      <trkpt lat="43.75674000" lon="11.28695540">
        <ele>54.000000</ele>
        <time>2010-01-01T10:22:29Z</time>
      </trkpt>
      <trkpt lat="43.75628670" lon="11.28803370">
        <ele>56.000000</ele>
        <time>2010-01-01T10:23:05Z</time>
      </trkpt>
      <trkpt lat="43.75614000" lon="11.28893000">
        <ele>54.000000</ele>
        <time>2010-01-01T10:23:31Z</time>
      </trkpt>
      <trkpt lat="43.75605420" lon="11.28933720">
        <ele>54.000000</ele>
        <time>2010-01-01T10:23:44Z</time>
      </trkpt>
      <trkpt lat="43.75599000" lon="11.29024000">
        <ele>56.000000</ele>
        <time>2010-01-01T10:24:10Z</time>
      </trkpt>
      <trkpt lat="43.75599000" lon="11.29106000">
        <ele>54.000000</ele>
        <time>2010-01-01T10:24:34Z</time>
      </trkpt>
      <trkpt lat="43.75613000" lon="11.29238000">
        <ele>56.000000</ele>
        <time>2010-01-01T10:25:12Z</time>
      </trkpt>
      <trkpt lat="43.75609000" lon="11.29284000">
        <ele>56.000000</ele>
        <time>2010-01-01T10:25:25Z</time>
      </trkpt>
      <trkpt lat="43.75557000" lon="11.29688000">
        <ele>58.000000</ele>
        <time>2010-01-01T10:27:24Z</time>
      </trkpt>
      <trkpt lat="43.75528000" lon="11.29844000">
        <ele>60.000000</ele>
        <time>2010-01-01T10:28:11Z</time>
      </trkpt>
      <trkpt lat="43.75512810" lon="11.29851570">
        <ele>60.000000</ele>
        <time>2010-01-01T10:28:17Z</time>
      </trkpt>
      <trkpt lat="43.75511260" lon="11.29871960">
        <ele>60.000000</ele>
        <time>2010-01-01T10:28:23Z</time>
      </trkpt>
      <trkpt lat="43.75522000" lon="11.29884000">
        <ele>60.000000</ele>
        <time>2010-01-01T10:28:29Z</time>
      </trkpt>
      <trkpt lat="43.75517000" lon="11.29913000">
        <ele>60.000000</ele>
        <time>2010-01-01T10:28:37Z</time>
      </trkpt>
      <trkpt lat="43.75492000" lon="11.30150000">
        <ele>60.000000</ele>
        <time>2010-01-01T10:29:47Z</time>
      </trkpt>
      <trkpt lat="43.75465000" lon="11.30384000">
        <ele>59.000000</ele>
        <time>2010-01-01T10:30:55Z</time>
      </trkpt>
      <trkpt lat="43.75442000" lon="11.30549000">
        <ele>60.000000</ele>
        <time>2010-01-01T10:31:44Z</time>
      </trkpt>
      <trkpt lat="43.75437000" lon="11.30556000">
        <ele>60.000000</ele>
        <time>2010-01-01T10:31:46Z</time>
      </trkpt>
      <trkpt lat="43.75423000" lon="11.30558000">
        <ele>59.000000</ele>
        <time>2010-01-01T10:31:52Z</time>
      </trkpt>
      <trkpt lat="43.75417000" lon="11.30554000">
        <ele>59.000000</ele>
        <time>2010-01-01T10:31:55Z</time>
      </trkpt>
      <trkpt lat="43.75407810" lon="11.30557000">
        <ele>58.000000</ele>
        <time>2010-01-01T10:31:59Z</time>
      </trkpt>
      <trkpt lat="43.75402000" lon="11.30570000">
        <ele>58.000000</ele>
        <time>2010-01-01T10:32:03Z</time>
      </trkpt>
      <trkpt lat="43.75402000" lon="11.30594000">
        <ele>58.000000</ele>
        <time>2010-01-01T10:32:10Z</time>
      </trkpt>
      <trkpt lat="43.75428000" lon="11.30642000">
        <ele>60.000000</ele>
        <time>2010-01-01T10:32:27Z</time>
      </trkpt>
      <trkpt lat="43.75374000" lon="11.31100000">
        <ele>61.000000</ele>
        <time>2010-01-01T10:34:41Z</time>
      </trkpt>
      <trkpt lat="43.75336000" lon="11.31365000">
        <ele>65.000000</ele>
        <time>2010-01-01T10:36:00Z</time>
      </trkpt>
      <trkpt lat="43.75321000" lon="11.31456000">
        <ele>64.000000</ele>
        <time>2010-01-01T10:36:27Z</time>
      </trkpt>
      <trkpt lat="43.75278000" lon="11.31756000">
        <ele>69.000000</ele>
        <time>2010-01-01T10:37:55Z</time>
      </trkpt>
      <trkpt lat="43.75247000" lon="11.31856000">
        <ele>71.000000</ele>
        <time>2010-01-01T10:38:26Z</time>
      </trkpt>
      <trkpt lat="43.75215000" lon="11.31952000">
        <ele>75.000000</ele>
        <time>2010-01-01T10:38:57Z</time>
      </trkpt>
      <trkpt lat="43.75212000" lon="11.31996000">
        <ele>76.000000</ele>
        <time>2010-01-01T10:39:10Z</time>
      </trkpt>
      <trkpt lat="43.75211000" lon="11.32028000">
        <ele>77.000000</ele>
        <time>2010-01-01T10:39:19Z</time>
      </trkpt>
      <trkpt lat="43.75192000" lon="11.32123000">
        <ele>83.000000</ele>
        <time>2010-01-01T10:39:48Z</time>
      </trkpt>
      <trkpt lat="43.75186000" lon="11.32135000">
        <ele>83.000000</ele>
        <time>2010-01-01T10:39:52Z</time>
      </trkpt>
      <trkpt lat="43.75184000" lon="11.32154000">
        <ele>85.000000</ele>
        <time>2010-01-01T10:39:57Z</time>
      </trkpt>
      <trkpt lat="43.75171000" lon="11.32202000">
        <ele>89.000000</ele>
        <time>2010-01-01T10:40:12Z</time>
      </trkpt>
      <trkpt lat="43.75151000" lon="11.32258000">
        <ele>93.000000</ele>
        <time>2010-01-01T10:40:30Z</time>
      </trkpt>
      <trkpt lat="43.75148000" lon="11.32282000">
        <ele>94.000000</ele>
        <time>2010-01-01T10:40:37Z</time>
      </trkpt>
      <trkpt lat="43.75148000" lon="11.32312000">
        <ele>98.000000</ele>
        <time>2010-01-01T10:40:46Z</time>
      </trkpt>
      <trkpt lat="43.75146000" lon="11.32322000">
        <ele>99.000000</ele>
        <time>2010-01-01T10:40:49Z</time>
      </trkpt>
      <trkpt lat="43.75124000" lon="11.32380000">
        <ele>108.00000</ele>
        <time>2010-01-01T10:41:08Z</time>
      </trkpt>
      <trkpt lat="43.75109000" lon="11.32432000">
        <ele>114.00000</ele>
        <time>2010-01-01T10:41:24Z</time>
      </trkpt>
      <trkpt lat="43.75019000" lon="11.32626000">
        <ele>132.00000</ele>
        <time>2010-01-01T10:42:31Z</time>
      </trkpt>
      <trkpt lat="43.75005000" lon="11.32676000">
        <ele>134.00000</ele>
        <time>2010-01-01T10:42:46Z</time>
      </trkpt>
      <trkpt lat="43.74999000" lon="11.32718000">
        <ele>136.00000</ele>
        <time>2010-01-01T10:42:59Z</time>
      </trkpt>
      <trkpt lat="43.74987000" lon="11.32784000">
        <ele>141.00000</ele>
        <time>2010-01-01T10:43:18Z</time>
      </trkpt>
      <trkpt lat="43.74982000" lon="11.32906000">
        <ele>152.00000</ele>
        <time>2010-01-01T10:43:54Z</time>
      </trkpt>
      <trkpt lat="43.74967000" lon="11.33033000">
        <ele>156.00000</ele>
        <time>2010-01-01T10:44:31Z</time>
      </trkpt>
      <trkpt lat="43.74945530" lon="11.33148010">
        <ele>157.00000</ele>
        <time>2010-01-01T10:45:05Z</time>
      </trkpt>
      <trkpt lat="43.74903000" lon="11.33295000">
        <ele>157.00000</ele>
        <time>2010-01-01T10:45:51Z</time>
      </trkpt>
      <trkpt lat="43.74869000" lon="11.33406000">
        <ele>157.00000</ele>
        <time>2010-01-01T10:46:26Z</time>
      </trkpt>
      <trkpt lat="43.74861000" lon="11.33423000">
        <ele>159.00000</ele>
        <time>2010-01-01T10:46:32Z</time>
      </trkpt>
      <trkpt lat="43.74854000" lon="11.33429000">
        <ele>159.00000</ele>
        <time>2010-01-01T10:46:35Z</time>
      </trkpt>
      <trkpt lat="43.74851000" lon="11.33440000">
        <ele>160.00000</ele>
        <time>2010-01-01T10:46:38Z</time>
      </trkpt>
      <trkpt lat="43.74790000" lon="11.33540000">
        <ele>163.00000</ele>
        <time>2010-01-01T10:47:16Z</time>
      </trkpt>
      <trkpt lat="43.74690000" lon="11.33694000">
        <ele>174.00000</ele>
        <time>2010-01-01T10:48:16Z</time>
      </trkpt>
      <trkpt lat="43.74672000" lon="11.33725000">
        <ele>176.00000</ele>
        <time>2010-01-01T10:48:28Z</time>
      </trkpt>
      <trkpt lat="43.74626000" lon="11.33778000">
        <ele>177.00000</ele>
        <time>2010-01-01T10:48:52Z</time>
      </trkpt>
      <trkpt lat="43.74462000" lon="11.33967000">
        <ele>185.00000</ele>
        <time>2010-01-01T10:50:17Z</time>
      </trkpt>
      <trkpt lat="43.74448000" lon="11.33990000">
        <ele>185.00000</ele>
        <time>2010-01-01T10:50:26Z</time>
      </trkpt>
      <trkpt lat="43.74380510" lon="11.34121110">
        <ele>180.00000</ele>
        <time>2010-01-01T10:51:12Z</time>
      </trkpt>
      <trkpt lat="43.74359200" lon="11.34154910">
        <ele>183.00000</ele>
        <time>2010-01-01T10:51:25Z</time>
      </trkpt>
      <trkpt lat="43.74344000" lon="11.34162000">
        <ele>184.00000</ele>
        <time>2010-01-01T10:51:32Z</time>
      </trkpt>
      <trkpt lat="43.74312000" lon="11.34202000">
        <ele>189.00000</ele>
        <time>2010-01-01T10:51:49Z</time>
      </trkpt>
      <trkpt lat="43.74258000" lon="11.34253000">
        <ele>195.00000</ele>
        <time>2010-01-01T10:52:15Z</time>
      </trkpt>
      <trkpt lat="43.74211000" lon="11.34299000">
        <ele>200.00000</ele>
        <time>2010-01-01T10:52:38Z</time>
      </trkpt>
      <trkpt lat="43.74162000" lon="11.34371000">
        <ele>206.00000</ele>
        <time>2010-01-01T10:53:07Z</time>
      </trkpt>
      <trkpt lat="43.74135000" lon="11.34416000">
        <ele>214.00000</ele>
        <time>2010-01-01T10:53:24Z</time>
      </trkpt>
      <trkpt lat="43.74113000" lon="11.34470000">
        <ele>221.00000</ele>
        <time>2010-01-01T10:53:42Z</time>
      </trkpt>
      <trkpt lat="43.74066000" lon="11.34602000">
        <ele>235.00000</ele>
        <time>2010-01-01T10:54:24Z</time>
      </trkpt>
      <trkpt lat="43.74055000" lon="11.34652000">
        <ele>238.00000</ele>
        <time>2010-01-01T10:54:39Z</time>
      </trkpt>
      <trkpt lat="43.74035000" lon="11.34768000">
        <ele>245.00000</ele>
        <time>2010-01-01T10:55:14Z</time>
      </trkpt>
      <trkpt lat="43.74016000" lon="11.34827000">
        <ele>248.00000</ele>
        <time>2010-01-01T10:55:32Z</time>
      </trkpt>
      <trkpt lat="43.73980000" lon="11.34907000">
        <ele>253.00000</ele>
        <time>2010-01-01T10:56:00Z</time>
      </trkpt>
      <trkpt lat="43.73963000" lon="11.34941000">
        <ele>256.00000</ele>
        <time>2010-01-01T10:56:12Z</time>
      </trkpt>
      <trkpt lat="43.73939000" lon="11.34958000">
        <ele>259.00000</ele>
        <time>2010-01-01T10:56:22Z</time>
      </trkpt>
      <trkpt lat="43.73894000" lon="11.34976000">
        <ele>268.00000</ele>
        <time>2010-01-01T10:56:41Z</time>
      </trkpt>
      <trkpt lat="43.73870870" lon="11.34990690">
        <ele>274.00000</ele>
        <time>2010-01-01T10:56:51Z</time>
      </trkpt>
    </trkseg>
  </trk>
</gpx>

